<?xml version="1.0" encoding="UTF-8" standalone="no" ?>
<gpx xmlns="http://www.topografix.com/GPX/1/1" xmlns:xsi="http://www.w3.org/2001/XMLSchema-instance" xsi:schemaLocation="http://www.topografix.com/GPX/1/1 http://www.topografix.com/GPX/1/1/gpx.xsd" version="1.1" creator="VisuGPX - https://www.visugpx.com">
  <metadata>
    <name>Les Méritants La grande colle</name>
    <desc><![CDATA[Montée par DFCI puis descente étroite, pentue et pierrier sur la Grande Colle]]></desc>
  </metadata>
  <trk>
    <name><![CDATA[Agasse Méritant la grande colle]]></name>
    <desc><![CDATA[6 févr. 2011 10:27 am]]></desc>
    <trkseg>
      <trkpt lat="43.82941" lon="5.57787">
        <ele>658.722</ele>
        <time>2011-02-06T09:30:03Z</time>
      </trkpt>
      <trkpt lat="43.82938" lon="5.57774">
        <ele>660.846</ele>
        <time>2011-02-06T09:30:07Z</time>
      </trkpt>
      <trkpt lat="43.82936" lon="5.57761">
        <ele>664.502</ele>
        <time>2011-02-06T09:30:11Z</time>
      </trkpt>
      <trkpt lat="43.82935" lon="5.57748">
        <ele>669.732</ele>
        <time>2011-02-06T09:30:15Z</time>
      </trkpt>
      <trkpt lat="43.82934" lon="5.57734">
        <ele>676.429</ele>
        <time>2011-02-06T09:30:20Z</time>
      </trkpt>
      <trkpt lat="43.82935" lon="5.57719">
        <ele>681.878</ele>
        <time>2011-02-06T09:30:25Z</time>
      </trkpt>
      <trkpt lat="43.82936" lon="5.57704">
        <ele>684.3</ele>
        <time>2011-02-06T09:30:30Z</time>
      </trkpt>
      <trkpt lat="43.82937" lon="5.5769">
        <ele>684.853</ele>
        <time>2011-02-06T09:30:35Z</time>
      </trkpt>
      <trkpt lat="43.8294" lon="5.57678">
        <ele>684.918</ele>
        <time>2011-02-06T09:30:39Z</time>
      </trkpt>
      <trkpt lat="43.82943" lon="5.57666">
        <ele>685.178</ele>
        <time>2011-02-06T09:30:43Z</time>
      </trkpt>
      <trkpt lat="43.82947" lon="5.57653">
        <ele>685.72</ele>
        <time>2011-02-06T09:30:47Z</time>
      </trkpt>
      <trkpt lat="43.82953" lon="5.57642">
        <ele>686.395</ele>
        <time>2011-02-06T09:30:51Z</time>
      </trkpt>
      <trkpt lat="43.82956" lon="5.57629">
        <ele>687.053</ele>
        <time>2011-02-06T09:30:56Z</time>
      </trkpt>
      <trkpt lat="43.8296" lon="5.57614">
        <ele>687.639</ele>
        <time>2011-02-06T09:31:00Z</time>
      </trkpt>
      <trkpt lat="43.82964" lon="5.57603">
        <ele>688.171</ele>
        <time>2011-02-06T09:31:04Z</time>
      </trkpt>
      <trkpt lat="43.82967" lon="5.57588">
        <ele>688.672</ele>
        <time>2011-02-06T09:31:09Z</time>
      </trkpt>
      <trkpt lat="43.82971" lon="5.57575">
        <ele>689.138</ele>
        <time>2011-02-06T09:31:13Z</time>
      </trkpt>
      <trkpt lat="43.82975" lon="5.57563">
        <ele>689.554</ele>
        <time>2011-02-06T09:31:17Z</time>
      </trkpt>
      <trkpt lat="43.82978" lon="5.5755">
        <ele>689.947</ele>
        <time>2011-02-06T09:31:21Z</time>
      </trkpt>
      <trkpt lat="43.82982" lon="5.57538">
        <ele>690.359</ele>
        <time>2011-02-06T09:31:27Z</time>
      </trkpt>
      <trkpt lat="43.82986" lon="5.57526">
        <ele>690.796</ele>
        <time>2011-02-06T09:31:31Z</time>
      </trkpt>
      <trkpt lat="43.82989" lon="5.57512">
        <ele>691.255</ele>
        <time>2011-02-06T09:31:36Z</time>
      </trkpt>
      <trkpt lat="43.82994" lon="5.575">
        <ele>691.75</ele>
        <time>2011-02-06T09:31:40Z</time>
      </trkpt>
      <trkpt lat="43.82995" lon="5.57485">
        <ele>692.266</ele>
        <time>2011-02-06T09:31:45Z</time>
      </trkpt>
      <trkpt lat="43.82998" lon="5.57472">
        <ele>692.751</ele>
        <time>2011-02-06T09:31:50Z</time>
      </trkpt>
      <trkpt lat="43.83" lon="5.5746">
        <ele>693.179</ele>
        <time>2011-02-06T09:31:54Z</time>
      </trkpt>
      <trkpt lat="43.83001" lon="5.57447">
        <ele>693.568</ele>
        <time>2011-02-06T09:31:58Z</time>
      </trkpt>
      <trkpt lat="43.83001" lon="5.57434">
        <ele>693.938</ele>
        <time>2011-02-06T09:32:02Z</time>
      </trkpt>
      <trkpt lat="43.82999" lon="5.5742">
        <ele>694.274</ele>
        <time>2011-02-06T09:32:07Z</time>
      </trkpt>
      <trkpt lat="43.82994" lon="5.57408">
        <ele>694.573</ele>
        <time>2011-02-06T09:32:12Z</time>
      </trkpt>
      <trkpt lat="43.82988" lon="5.57397">
        <ele>694.902</ele>
        <time>2011-02-06T09:32:18Z</time>
      </trkpt>
      <trkpt lat="43.82985" lon="5.57385">
        <ele>695.353</ele>
        <time>2011-02-06T09:32:22Z</time>
      </trkpt>
      <trkpt lat="43.82981" lon="5.57372">
        <ele>695.966</ele>
        <time>2011-02-06T09:32:26Z</time>
      </trkpt>
      <trkpt lat="43.82977" lon="5.5736">
        <ele>696.681</ele>
        <time>2011-02-06T09:32:31Z</time>
      </trkpt>
      <trkpt lat="43.82974" lon="5.57346">
        <ele>697.364</ele>
        <time>2011-02-06T09:32:36Z</time>
      </trkpt>
      <trkpt lat="43.82971" lon="5.57333">
        <ele>697.909</ele>
        <time>2011-02-06T09:32:41Z</time>
      </trkpt>
      <trkpt lat="43.82969" lon="5.57318">
        <ele>698.332</ele>
        <time>2011-02-06T09:32:46Z</time>
      </trkpt>
      <trkpt lat="43.82967" lon="5.57304">
        <ele>698.726</ele>
        <time>2011-02-06T09:32:51Z</time>
      </trkpt>
      <trkpt lat="43.82965" lon="5.5729">
        <ele>699.15</ele>
        <time>2011-02-06T09:32:56Z</time>
      </trkpt>
      <trkpt lat="43.82962" lon="5.57275">
        <ele>699.65</ele>
        <time>2011-02-06T09:33:01Z</time>
      </trkpt>
      <trkpt lat="43.8296" lon="5.57262">
        <ele>700.31</ele>
        <time>2011-02-06T09:33:06Z</time>
      </trkpt>
      <trkpt lat="43.82956" lon="5.57248">
        <ele>701.161</ele>
        <time>2011-02-06T09:33:11Z</time>
      </trkpt>
      <trkpt lat="43.82952" lon="5.57235">
        <ele>702.112</ele>
        <time>2011-02-06T09:33:16Z</time>
      </trkpt>
      <trkpt lat="43.82946" lon="5.57223">
        <ele>703.044</ele>
        <time>2011-02-06T09:33:22Z</time>
      </trkpt>
      <trkpt lat="43.82941" lon="5.5721">
        <ele>703.893</ele>
        <time>2011-02-06T09:33:27Z</time>
      </trkpt>
      <trkpt lat="43.82936" lon="5.572">
        <ele>704.638</ele>
        <time>2011-02-06T09:33:32Z</time>
      </trkpt>
      <trkpt lat="43.82931" lon="5.57189">
        <ele>705.272</ele>
        <time>2011-02-06T09:33:37Z</time>
      </trkpt>
      <trkpt lat="43.82925" lon="5.57177">
        <ele>705.787</ele>
        <time>2011-02-06T09:33:43Z</time>
      </trkpt>
      <trkpt lat="43.8292" lon="5.57164">
        <ele>706.226</ele>
        <time>2011-02-06T09:33:49Z</time>
      </trkpt>
      <trkpt lat="43.82915" lon="5.57151">
        <ele>706.686</ele>
        <time>2011-02-06T09:33:55Z</time>
      </trkpt>
      <trkpt lat="43.82911" lon="5.57138">
        <ele>707.243</ele>
        <time>2011-02-06T09:34:01Z</time>
      </trkpt>
      <trkpt lat="43.82908" lon="5.57125">
        <ele>707.91</ele>
        <time>2011-02-06T09:34:06Z</time>
      </trkpt>
      <trkpt lat="43.82902" lon="5.57113">
        <ele>708.644</ele>
        <time>2011-02-06T09:34:11Z</time>
      </trkpt>
      <trkpt lat="43.82897" lon="5.57101">
        <ele>709.361</ele>
        <time>2011-02-06T09:34:17Z</time>
      </trkpt>
      <trkpt lat="43.82893" lon="5.57088">
        <ele>709.981</ele>
        <time>2011-02-06T09:34:23Z</time>
      </trkpt>
      <trkpt lat="43.82888" lon="5.57077">
        <ele>710.483</ele>
        <time>2011-02-06T09:34:28Z</time>
      </trkpt>
      <trkpt lat="43.82882" lon="5.57066">
        <ele>710.936</ele>
        <time>2011-02-06T09:34:34Z</time>
      </trkpt>
      <trkpt lat="43.82877" lon="5.57054">
        <ele>711.443</ele>
        <time>2011-02-06T09:34:40Z</time>
      </trkpt>
      <trkpt lat="43.82871" lon="5.57043">
        <ele>712.031</ele>
        <time>2011-02-06T09:34:46Z</time>
      </trkpt>
      <trkpt lat="43.82865" lon="5.57031">
        <ele>712.666</ele>
        <time>2011-02-06T09:34:51Z</time>
      </trkpt>
      <trkpt lat="43.82858" lon="5.5702">
        <ele>713.337</ele>
        <time>2011-02-06T09:34:57Z</time>
      </trkpt>
      <trkpt lat="43.82851" lon="5.5701">
        <ele>714.047</ele>
        <time>2011-02-06T09:35:02Z</time>
      </trkpt>
      <trkpt lat="43.82844" lon="5.56999">
        <ele>714.764</ele>
        <time>2011-02-06T09:35:08Z</time>
      </trkpt>
      <trkpt lat="43.82836" lon="5.56989">
        <ele>715.458</ele>
        <time>2011-02-06T09:35:14Z</time>
      </trkpt>
      <trkpt lat="43.8283" lon="5.56979">
        <ele>716.117</ele>
        <time>2011-02-06T09:35:20Z</time>
      </trkpt>
      <trkpt lat="43.82822" lon="5.5697">
        <ele>716.746</ele>
        <time>2011-02-06T09:35:26Z</time>
      </trkpt>
      <trkpt lat="43.82815" lon="5.56962">
        <ele>717.428</ele>
        <time>2011-02-06T09:35:31Z</time>
      </trkpt>
      <trkpt lat="43.82809" lon="5.56952">
        <ele>718.272</ele>
        <time>2011-02-06T09:35:36Z</time>
      </trkpt>
      <trkpt lat="43.82803" lon="5.56943">
        <ele>719.252</ele>
        <time>2011-02-06T09:35:42Z</time>
      </trkpt>
      <trkpt lat="43.82798" lon="5.56931">
        <ele>720.204</ele>
        <time>2011-02-06T09:35:48Z</time>
      </trkpt>
      <trkpt lat="43.82795" lon="5.56918">
        <ele>721.035</ele>
        <time>2011-02-06T09:35:54Z</time>
      </trkpt>
      <trkpt lat="43.8279" lon="5.56906">
        <ele>721.879</ele>
        <time>2011-02-06T09:36:01Z</time>
      </trkpt>
      <trkpt lat="43.82787" lon="5.56893">
        <ele>722.927</ele>
        <time>2011-02-06T09:36:08Z</time>
      </trkpt>
      <trkpt lat="43.82782" lon="5.56881">
        <ele>724.165</ele>
        <time>2011-02-06T09:36:14Z</time>
      </trkpt>
      <trkpt lat="43.82777" lon="5.56868">
        <ele>725.455</ele>
        <time>2011-02-06T09:36:20Z</time>
      </trkpt>
      <trkpt lat="43.82771" lon="5.56856">
        <ele>726.693</ele>
        <time>2011-02-06T09:36:26Z</time>
      </trkpt>
      <trkpt lat="43.82763" lon="5.56848">
        <ele>727.805</ele>
        <time>2011-02-06T09:36:33Z</time>
      </trkpt>
      <trkpt lat="43.82756" lon="5.56839">
        <ele>728.777</ele>
        <time>2011-02-06T09:36:40Z</time>
      </trkpt>
      <trkpt lat="43.82748" lon="5.56831">
        <ele>729.734</ele>
        <time>2011-02-06T09:36:46Z</time>
      </trkpt>
      <trkpt lat="43.8274" lon="5.56823">
        <ele>730.84</ele>
        <time>2011-02-06T09:36:52Z</time>
      </trkpt>
      <trkpt lat="43.82732" lon="5.56814">
        <ele>732.152</ele>
        <time>2011-02-06T09:36:59Z</time>
      </trkpt>
      <trkpt lat="43.82722" lon="5.56808">
        <ele>733.565</ele>
        <time>2011-02-06T09:37:06Z</time>
      </trkpt>
      <trkpt lat="43.82712" lon="5.56804">
        <ele>734.897</ele>
        <time>2011-02-06T09:37:12Z</time>
      </trkpt>
      <trkpt lat="43.82703" lon="5.56798">
        <ele>736.053</ele>
        <time>2011-02-06T09:37:17Z</time>
      </trkpt>
      <trkpt lat="43.82694" lon="5.56796">
        <ele>737.058</ele>
        <time>2011-02-06T09:37:23Z</time>
      </trkpt>
      <trkpt lat="43.82684" lon="5.56795">
        <ele>737.997</ele>
        <time>2011-02-06T09:37:29Z</time>
      </trkpt>
      <trkpt lat="43.82675" lon="5.56798">
        <ele>738.925</ele>
        <time>2011-02-06T09:37:35Z</time>
      </trkpt>
      <trkpt lat="43.82666" lon="5.568">
        <ele>739.854</ele>
        <time>2011-02-06T09:37:40Z</time>
      </trkpt>
      <trkpt lat="43.82657" lon="5.56803">
        <ele>740.809</ele>
        <time>2011-02-06T09:37:46Z</time>
      </trkpt>
      <trkpt lat="43.82648" lon="5.56805">
        <ele>741.809</ele>
        <time>2011-02-06T09:37:52Z</time>
      </trkpt>
      <trkpt lat="43.82638" lon="5.56806">
        <ele>742.813</ele>
        <time>2011-02-06T09:37:58Z</time>
      </trkpt>
      <trkpt lat="43.82628" lon="5.56806">
        <ele>743.774</ele>
        <time>2011-02-06T09:38:04Z</time>
      </trkpt>
      <trkpt lat="43.82619" lon="5.56808">
        <ele>744.704</ele>
        <time>2011-02-06T09:38:11Z</time>
      </trkpt>
      <trkpt lat="43.8261" lon="5.56806">
        <ele>745.631</ele>
        <time>2011-02-06T09:38:17Z</time>
      </trkpt>
      <trkpt lat="43.82601" lon="5.56805">
        <ele>746.553</ele>
        <time>2011-02-06T09:38:22Z</time>
      </trkpt>
      <trkpt lat="43.82592" lon="5.56805">
        <ele>747.47</ele>
        <time>2011-02-06T09:38:30Z</time>
      </trkpt>
      <trkpt lat="43.82582" lon="5.56804">
        <ele>748.373</ele>
        <time>2011-02-06T09:38:35Z</time>
      </trkpt>
      <trkpt lat="43.82573" lon="5.568">
        <ele>749.224</ele>
        <time>2011-02-06T09:38:41Z</time>
      </trkpt>
      <trkpt lat="43.82563" lon="5.56797">
        <ele>750.076</ele>
        <time>2011-02-06T09:38:48Z</time>
      </trkpt>
      <trkpt lat="43.82553" lon="5.56796">
        <ele>751.026</ele>
        <time>2011-02-06T09:38:55Z</time>
      </trkpt>
      <trkpt lat="43.82543" lon="5.56798">
        <ele>752.06</ele>
        <time>2011-02-06T09:39:02Z</time>
      </trkpt>
      <trkpt lat="43.82532" lon="5.568">
        <ele>753.146</ele>
        <time>2011-02-06T09:39:09Z</time>
      </trkpt>
      <trkpt lat="43.82522" lon="5.56802">
        <ele>754.312</ele>
        <time>2011-02-06T09:39:16Z</time>
      </trkpt>
      <trkpt lat="43.82512" lon="5.568">
        <ele>755.561</ele>
        <time>2011-02-06T09:39:21Z</time>
      </trkpt>
      <trkpt lat="43.82503" lon="5.56801">
        <ele>756.867</ele>
        <time>2011-02-06T09:39:26Z</time>
      </trkpt>
      <trkpt lat="43.82493" lon="5.56802">
        <ele>758.187</ele>
        <time>2011-02-06T09:39:33Z</time>
      </trkpt>
      <trkpt lat="43.82483" lon="5.56802">
        <ele>759.387</ele>
        <time>2011-02-06T09:39:39Z</time>
      </trkpt>
      <trkpt lat="43.82473" lon="5.56803">
        <ele>760.353</ele>
        <time>2011-02-06T09:39:44Z</time>
      </trkpt>
      <trkpt lat="43.82463" lon="5.56803">
        <ele>761.215</ele>
        <time>2011-02-06T09:39:51Z</time>
      </trkpt>
      <trkpt lat="43.82452" lon="5.56804">
        <ele>762.177</ele>
        <time>2011-02-06T09:39:57Z</time>
      </trkpt>
      <trkpt lat="43.82442" lon="5.56806">
        <ele>763.21</ele>
        <time>2011-02-06T09:40:02Z</time>
      </trkpt>
      <trkpt lat="43.82433" lon="5.56807">
        <ele>764.227</ele>
        <time>2011-02-06T09:40:07Z</time>
      </trkpt>
      <trkpt lat="43.82424" lon="5.56804">
        <ele>765.226</ele>
        <time>2011-02-06T09:40:12Z</time>
      </trkpt>
      <trkpt lat="43.82414" lon="5.56802">
        <ele>766.172</ele>
        <time>2011-02-06T09:40:17Z</time>
      </trkpt>
      <trkpt lat="43.82405" lon="5.56799">
        <ele>767.006</ele>
        <time>2011-02-06T09:40:22Z</time>
      </trkpt>
      <trkpt lat="43.82396" lon="5.56795">
        <ele>767.738</ele>
        <time>2011-02-06T09:40:27Z</time>
      </trkpt>
      <trkpt lat="43.82387" lon="5.56791">
        <ele>768.402</ele>
        <time>2011-02-06T09:40:33Z</time>
      </trkpt>
      <trkpt lat="43.82377" lon="5.56784">
        <ele>769.027</ele>
        <time>2011-02-06T09:40:39Z</time>
      </trkpt>
      <trkpt lat="43.82368" lon="5.56781">
        <ele>769.658</ele>
        <time>2011-02-06T09:40:44Z</time>
      </trkpt>
      <trkpt lat="43.82358" lon="5.56781">
        <ele>770.347</ele>
        <time>2011-02-06T09:40:50Z</time>
      </trkpt>
      <trkpt lat="43.8235" lon="5.56789">
        <ele>771.099</ele>
        <time>2011-02-06T09:40:56Z</time>
      </trkpt>
      <trkpt lat="43.82343" lon="5.56796">
        <ele>771.878</ele>
        <time>2011-02-06T09:41:02Z</time>
      </trkpt>
      <trkpt lat="43.82335" lon="5.56805">
        <ele>772.685</ele>
        <time>2011-02-06T09:41:08Z</time>
      </trkpt>
      <trkpt lat="43.82328" lon="5.56815">
        <ele>773.542</ele>
        <time>2011-02-06T09:41:14Z</time>
      </trkpt>
      <trkpt lat="43.82321" lon="5.56824">
        <ele>774.422</ele>
        <time>2011-02-06T09:41:20Z</time>
      </trkpt>
      <trkpt lat="43.82314" lon="5.56833">
        <ele>775.277</ele>
        <time>2011-02-06T09:41:26Z</time>
      </trkpt>
      <trkpt lat="43.82306" lon="5.56842">
        <ele>776.085</ele>
        <time>2011-02-06T09:41:33Z</time>
      </trkpt>
      <trkpt lat="43.82298" lon="5.56852">
        <ele>776.847</ele>
        <time>2011-02-06T09:41:40Z</time>
      </trkpt>
      <trkpt lat="43.82292" lon="5.56864">
        <ele>777.584</ele>
        <time>2011-02-06T09:41:46Z</time>
      </trkpt>
      <trkpt lat="43.82287" lon="5.56876">
        <ele>778.335</ele>
        <time>2011-02-06T09:41:53Z</time>
      </trkpt>
      <trkpt lat="43.8228" lon="5.56885">
        <ele>779.144</ele>
        <time>2011-02-06T09:41:58Z</time>
      </trkpt>
      <trkpt lat="43.82272" lon="5.56893">
        <ele>780.003</ele>
        <time>2011-02-06T09:42:06Z</time>
      </trkpt>
      <trkpt lat="43.82264" lon="5.56902">
        <ele>780.878</ele>
        <time>2011-02-06T09:42:11Z</time>
      </trkpt>
      <trkpt lat="43.82257" lon="5.56911">
        <ele>781.773</ele>
        <time>2011-02-06T09:42:17Z</time>
      </trkpt>
      <trkpt lat="43.82249" lon="5.5692">
        <ele>782.76</ele>
        <time>2011-02-06T09:42:24Z</time>
      </trkpt>
      <trkpt lat="43.82239" lon="5.56926">
        <ele>783.852</ele>
        <time>2011-02-06T09:42:30Z</time>
      </trkpt>
      <trkpt lat="43.82229" lon="5.56923">
        <ele>784.973</ele>
        <time>2011-02-06T09:42:36Z</time>
      </trkpt>
      <trkpt lat="43.82221" lon="5.56915">
        <ele>786.123</ele>
        <time>2011-02-06T09:42:42Z</time>
      </trkpt>
      <trkpt lat="43.82215" lon="5.56904">
        <ele>787.355</ele>
        <time>2011-02-06T09:42:48Z</time>
      </trkpt>
      <trkpt lat="43.8221" lon="5.56893">
        <ele>788.632</ele>
        <time>2011-02-06T09:42:58Z</time>
      </trkpt>
      <trkpt lat="43.82205" lon="5.56882">
        <ele>789.889</ele>
        <time>2011-02-06T09:43:08Z</time>
      </trkpt>
      <trkpt lat="43.822" lon="5.56871">
        <ele>791.072</ele>
        <time>2011-02-06T09:43:17Z</time>
      </trkpt>
      <trkpt lat="43.82197" lon="5.56858">
        <ele>792.242</ele>
        <time>2011-02-06T09:43:30Z</time>
      </trkpt>
      <trkpt lat="43.82193" lon="5.56846">
        <ele>793.501</ele>
        <time>2011-02-06T09:43:35Z</time>
      </trkpt>
      <trkpt lat="43.82188" lon="5.56833">
        <ele>794.768</ele>
        <time>2011-02-06T09:43:41Z</time>
      </trkpt>
      <trkpt lat="43.82183" lon="5.56821">
        <ele>795.914</ele>
        <time>2011-02-06T09:43:47Z</time>
      </trkpt>
      <trkpt lat="43.8218" lon="5.56809">
        <ele>796.908</ele>
        <time>2011-02-06T09:43:53Z</time>
      </trkpt>
      <trkpt lat="43.82173" lon="5.56799">
        <ele>797.744</ele>
        <time>2011-02-06T09:43:59Z</time>
      </trkpt>
      <trkpt lat="43.82167" lon="5.56789">
        <ele>798.466</ele>
        <time>2011-02-06T09:44:05Z</time>
      </trkpt>
      <trkpt lat="43.82162" lon="5.56778">
        <ele>799.146</ele>
        <time>2011-02-06T09:44:11Z</time>
      </trkpt>
      <trkpt lat="43.82154" lon="5.56769">
        <ele>799.805</ele>
        <time>2011-02-06T09:44:18Z</time>
      </trkpt>
      <trkpt lat="43.82147" lon="5.56761">
        <ele>800.446</ele>
        <time>2011-02-06T09:44:24Z</time>
      </trkpt>
      <trkpt lat="43.82139" lon="5.56755">
        <ele>801.072</ele>
        <time>2011-02-06T09:44:30Z</time>
      </trkpt>
      <trkpt lat="43.8213" lon="5.56749">
        <ele>801.708</ele>
        <time>2011-02-06T09:44:35Z</time>
      </trkpt>
      <trkpt lat="43.82121" lon="5.56743">
        <ele>802.362</ele>
        <time>2011-02-06T09:44:41Z</time>
      </trkpt>
      <trkpt lat="43.82113" lon="5.56738">
        <ele>802.974</ele>
        <time>2011-02-06T09:44:47Z</time>
      </trkpt>
      <trkpt lat="43.82104" lon="5.56732">
        <ele>803.481</ele>
        <time>2011-02-06T09:44:53Z</time>
      </trkpt>
      <trkpt lat="43.82096" lon="5.56724">
        <ele>803.919</ele>
        <time>2011-02-06T09:44:59Z</time>
      </trkpt>
      <trkpt lat="43.82089" lon="5.56717">
        <ele>804.376</ele>
        <time>2011-02-06T09:45:05Z</time>
      </trkpt>
      <trkpt lat="43.82079" lon="5.56712">
        <ele>804.897</ele>
        <time>2011-02-06T09:45:12Z</time>
      </trkpt>
      <trkpt lat="43.8207" lon="5.56706">
        <ele>805.461</ele>
        <time>2011-02-06T09:45:17Z</time>
      </trkpt>
      <trkpt lat="43.8206" lon="5.56704">
        <ele>806.028</ele>
        <time>2011-02-06T09:45:23Z</time>
      </trkpt>
      <trkpt lat="43.8205" lon="5.56703">
        <ele>806.574</ele>
        <time>2011-02-06T09:45:29Z</time>
      </trkpt>
      <trkpt lat="43.82041" lon="5.56703">
        <ele>807.103</ele>
        <time>2011-02-06T09:45:35Z</time>
      </trkpt>
      <trkpt lat="43.82032" lon="5.56701">
        <ele>807.694</ele>
        <time>2011-02-06T09:45:41Z</time>
      </trkpt>
      <trkpt lat="43.82023" lon="5.56698">
        <ele>808.482</ele>
        <time>2011-02-06T09:45:48Z</time>
      </trkpt>
      <trkpt lat="43.82014" lon="5.56697">
        <ele>809.504</ele>
        <time>2011-02-06T09:45:55Z</time>
      </trkpt>
      <trkpt lat="43.82004" lon="5.56695">
        <ele>810.637</ele>
        <time>2011-02-06T09:46:01Z</time>
      </trkpt>
      <trkpt lat="43.81995" lon="5.56693">
        <ele>811.74</ele>
        <time>2011-02-06T09:46:06Z</time>
      </trkpt>
      <trkpt lat="43.81985" lon="5.56689">
        <ele>812.739</ele>
        <time>2011-02-06T09:46:11Z</time>
      </trkpt>
      <trkpt lat="43.81975" lon="5.56682">
        <ele>813.623</ele>
        <time>2011-02-06T09:46:15Z</time>
      </trkpt>
      <trkpt lat="43.81969" lon="5.56669">
        <ele>814.396</ele>
        <time>2011-02-06T09:46:19Z</time>
      </trkpt>
      <trkpt lat="43.81966" lon="5.56654">
        <ele>815.064</ele>
        <time>2011-02-06T09:46:23Z</time>
      </trkpt>
      <trkpt lat="43.81964" lon="5.56639">
        <ele>815.651</ele>
        <time>2011-02-06T09:46:27Z</time>
      </trkpt>
      <trkpt lat="43.81963" lon="5.56625">
        <ele>816.169</ele>
        <time>2011-02-06T09:46:31Z</time>
      </trkpt>
      <trkpt lat="43.81963" lon="5.5661">
        <ele>816.63</ele>
        <time>2011-02-06T09:46:35Z</time>
      </trkpt>
      <trkpt lat="43.81963" lon="5.56597">
        <ele>817.058</ele>
        <time>2011-02-06T09:46:39Z</time>
      </trkpt>
      <trkpt lat="43.81964" lon="5.56584">
        <ele>817.469</ele>
        <time>2011-02-06T09:46:43Z</time>
      </trkpt>
      <trkpt lat="43.81962" lon="5.56569">
        <ele>817.871</ele>
        <time>2011-02-06T09:46:48Z</time>
      </trkpt>
      <trkpt lat="43.81962" lon="5.56556">
        <ele>818.271</ele>
        <time>2011-02-06T09:46:52Z</time>
      </trkpt>
      <trkpt lat="43.81962" lon="5.56543">
        <ele>818.681</ele>
        <time>2011-02-06T09:46:56Z</time>
      </trkpt>
      <trkpt lat="43.81961" lon="5.5653">
        <ele>819.101</ele>
        <time>2011-02-06T09:47:01Z</time>
      </trkpt>
      <trkpt lat="43.81961" lon="5.56517">
        <ele>819.51</ele>
        <time>2011-02-06T09:47:05Z</time>
      </trkpt>
      <trkpt lat="43.81961" lon="5.56504">
        <ele>819.885</ele>
        <time>2011-02-06T09:47:09Z</time>
      </trkpt>
      <trkpt lat="43.81961" lon="5.5649">
        <ele>820.263</ele>
        <time>2011-02-06T09:47:13Z</time>
      </trkpt>
      <trkpt lat="43.81961" lon="5.56477">
        <ele>820.696</ele>
        <time>2011-02-06T09:47:17Z</time>
      </trkpt>
      <trkpt lat="43.81963" lon="5.56464">
        <ele>821.181</ele>
        <time>2011-02-06T09:47:21Z</time>
      </trkpt>
      <trkpt lat="43.81968" lon="5.56449">
        <ele>821.689</ele>
        <time>2011-02-06T09:47:25Z</time>
      </trkpt>
      <trkpt lat="43.81974" lon="5.56434">
        <ele>822.197</ele>
        <time>2011-02-06T09:47:29Z</time>
      </trkpt>
      <trkpt lat="43.81977" lon="5.56422">
        <ele>822.681</ele>
        <time>2011-02-06T09:47:32Z</time>
      </trkpt>
      <trkpt lat="43.81981" lon="5.56408">
        <ele>823.121</ele>
        <time>2011-02-06T09:47:36Z</time>
      </trkpt>
      <trkpt lat="43.81985" lon="5.56396">
        <ele>823.504</ele>
        <time>2011-02-06T09:47:39Z</time>
      </trkpt>
      <trkpt lat="43.81989" lon="5.56383">
        <ele>823.823</ele>
        <time>2011-02-06T09:47:42Z</time>
      </trkpt>
      <trkpt lat="43.81994" lon="5.56372">
        <ele>824.092</ele>
        <time>2011-02-06T09:47:45Z</time>
      </trkpt>
      <trkpt lat="43.81999" lon="5.5636">
        <ele>824.334</ele>
        <time>2011-02-06T09:47:48Z</time>
      </trkpt>
      <trkpt lat="43.82006" lon="5.56347">
        <ele>824.552</ele>
        <time>2011-02-06T09:47:51Z</time>
      </trkpt>
      <trkpt lat="43.82014" lon="5.56333">
        <ele>824.737</ele>
        <time>2011-02-06T09:47:54Z</time>
      </trkpt>
      <trkpt lat="43.82019" lon="5.56322">
        <ele>824.884</ele>
        <time>2011-02-06T09:47:57Z</time>
      </trkpt>
      <trkpt lat="43.82023" lon="5.56306">
        <ele>824.998</ele>
        <time>2011-02-06T09:48:01Z</time>
      </trkpt>
      <trkpt lat="43.82026" lon="5.56293">
        <ele>825.106</ele>
        <time>2011-02-06T09:48:04Z</time>
      </trkpt>
      <trkpt lat="43.82031" lon="5.5628">
        <ele>825.238</ele>
        <time>2011-02-06T09:48:07Z</time>
      </trkpt>
      <trkpt lat="43.82037" lon="5.56268">
        <ele>825.415</ele>
        <time>2011-02-06T09:48:10Z</time>
      </trkpt>
      <trkpt lat="43.82043" lon="5.56256">
        <ele>825.661</ele>
        <time>2011-02-06T09:48:13Z</time>
      </trkpt>
      <trkpt lat="43.8205" lon="5.56244">
        <ele>825.983</ele>
        <time>2011-02-06T09:48:16Z</time>
      </trkpt>
      <trkpt lat="43.82057" lon="5.56229">
        <ele>826.392</ele>
        <time>2011-02-06T09:48:19Z</time>
      </trkpt>
      <trkpt lat="43.82063" lon="5.56218">
        <ele>826.895</ele>
        <time>2011-02-06T09:48:22Z</time>
      </trkpt>
      <trkpt lat="43.82069" lon="5.56207">
        <ele>827.465</ele>
        <time>2011-02-06T09:48:25Z</time>
      </trkpt>
      <trkpt lat="43.82072" lon="5.56194">
        <ele>828.605</ele>
        <time>2011-02-06T09:48:28Z</time>
      </trkpt>
      <trkpt lat="43.82077" lon="5.56182">
        <ele>830.584</ele>
        <time>2011-02-06T09:48:31Z</time>
      </trkpt>
      <trkpt lat="43.82085" lon="5.5617">
        <ele>832.486</ele>
        <time>2011-02-06T09:48:36Z</time>
      </trkpt>
      <trkpt lat="43.82091" lon="5.56158">
        <ele>833.486</ele>
        <time>2011-02-06T09:48:40Z</time>
      </trkpt>
      <trkpt lat="43.82096" lon="5.56148">
        <ele>833.817</ele>
        <time>2011-02-06T09:48:43Z</time>
      </trkpt>
      <trkpt lat="43.82101" lon="5.56137">
        <ele>833.898</ele>
        <time>2011-02-06T09:48:46Z</time>
      </trkpt>
      <trkpt lat="43.82105" lon="5.56126">
        <ele>833.974</ele>
        <time>2011-02-06T09:48:49Z</time>
      </trkpt>
      <trkpt lat="43.82111" lon="5.56112">
        <ele>834.083</ele>
        <time>2011-02-06T09:48:53Z</time>
      </trkpt>
      <trkpt lat="43.82116" lon="5.56099">
        <ele>834.19</ele>
        <time>2011-02-06T09:48:57Z</time>
      </trkpt>
      <trkpt lat="43.82122" lon="5.56087">
        <ele>834.274</ele>
        <time>2011-02-06T09:49:01Z</time>
      </trkpt>
      <trkpt lat="43.82127" lon="5.56075">
        <ele>834.34</ele>
        <time>2011-02-06T09:49:05Z</time>
      </trkpt>
      <trkpt lat="43.82133" lon="5.56062">
        <ele>834.396</ele>
        <time>2011-02-06T09:49:10Z</time>
      </trkpt>
      <trkpt lat="43.82138" lon="5.56051">
        <ele>834.462</ele>
        <time>2011-02-06T09:49:14Z</time>
      </trkpt>
      <trkpt lat="43.82142" lon="5.56039">
        <ele>834.553</ele>
        <time>2011-02-06T09:49:18Z</time>
      </trkpt>
      <trkpt lat="43.82147" lon="5.56026">
        <ele>834.67</ele>
        <time>2011-02-06T09:49:22Z</time>
      </trkpt>
      <trkpt lat="43.8215" lon="5.56014">
        <ele>834.816</ele>
        <time>2011-02-06T09:49:26Z</time>
      </trkpt>
      <trkpt lat="43.82152" lon="5.56001">
        <ele>834.982</ele>
        <time>2011-02-06T09:49:30Z</time>
      </trkpt>
      <trkpt lat="43.82154" lon="5.55987">
        <ele>835.128</ele>
        <time>2011-02-06T09:49:35Z</time>
      </trkpt>
      <trkpt lat="43.82154" lon="5.55971">
        <ele>835.223</ele>
        <time>2011-02-06T09:49:40Z</time>
      </trkpt>
      <trkpt lat="43.82151" lon="5.55959">
        <ele>835.277</ele>
        <time>2011-02-06T09:49:44Z</time>
      </trkpt>
      <trkpt lat="43.82146" lon="5.55948">
        <ele>835.31</ele>
        <time>2011-02-06T09:49:48Z</time>
      </trkpt>
      <trkpt lat="43.8214" lon="5.55937">
        <ele>835.328</ele>
        <time>2011-02-06T09:49:53Z</time>
      </trkpt>
      <trkpt lat="43.82133" lon="5.55926">
        <ele>835.341</ele>
        <time>2011-02-06T09:49:59Z</time>
      </trkpt>
      <trkpt lat="43.82125" lon="5.55915">
        <ele>835.372</ele>
        <time>2011-02-06T09:50:06Z</time>
      </trkpt>
      <trkpt lat="43.82118" lon="5.55906">
        <ele>835.459</ele>
        <time>2011-02-06T09:50:11Z</time>
      </trkpt>
      <trkpt lat="43.82112" lon="5.55896">
        <ele>835.643</ele>
        <time>2011-02-06T09:50:17Z</time>
      </trkpt>
      <trkpt lat="43.82105" lon="5.55887">
        <ele>835.961</ele>
        <time>2011-02-06T09:50:23Z</time>
      </trkpt>
      <trkpt lat="43.82098" lon="5.55877">
        <ele>836.432</ele>
        <time>2011-02-06T09:50:29Z</time>
      </trkpt>
      <trkpt lat="43.82091" lon="5.5587">
        <ele>837.032</ele>
        <time>2011-02-06T09:50:35Z</time>
      </trkpt>
      <trkpt lat="43.82084" lon="5.55861">
        <ele>837.696</ele>
        <time>2011-02-06T09:50:41Z</time>
      </trkpt>
      <trkpt lat="43.82076" lon="5.55853">
        <ele>838.344</ele>
        <time>2011-02-06T09:50:47Z</time>
      </trkpt>
      <trkpt lat="43.82068" lon="5.55846">
        <ele>838.92</ele>
        <time>2011-02-06T09:50:53Z</time>
      </trkpt>
      <trkpt lat="43.8206" lon="5.5584">
        <ele>839.438</ele>
        <time>2011-02-06T09:50:59Z</time>
      </trkpt>
      <trkpt lat="43.82052" lon="5.55834">
        <ele>839.953</ele>
        <time>2011-02-06T09:51:05Z</time>
      </trkpt>
      <trkpt lat="43.82045" lon="5.55826">
        <ele>840.497</ele>
        <time>2011-02-06T09:51:11Z</time>
      </trkpt>
      <trkpt lat="43.82037" lon="5.55817">
        <ele>841.066</ele>
        <time>2011-02-06T09:51:17Z</time>
      </trkpt>
      <trkpt lat="43.82029" lon="5.55811">
        <ele>841.616</ele>
        <time>2011-02-06T09:51:23Z</time>
      </trkpt>
      <trkpt lat="43.82019" lon="5.55808">
        <ele>842.113</ele>
        <time>2011-02-06T09:51:29Z</time>
      </trkpt>
      <trkpt lat="43.82009" lon="5.55806">
        <ele>842.579</ele>
        <time>2011-02-06T09:51:34Z</time>
      </trkpt>
      <trkpt lat="43.81999" lon="5.55802">
        <ele>843.074</ele>
        <time>2011-02-06T09:51:40Z</time>
      </trkpt>
      <trkpt lat="43.8199" lon="5.558">
        <ele>843.651</ele>
        <time>2011-02-06T09:51:47Z</time>
      </trkpt>
      <trkpt lat="43.81979" lon="5.55799">
        <ele>844.37</ele>
        <time>2011-02-06T09:51:54Z</time>
      </trkpt>
      <trkpt lat="43.81969" lon="5.55799">
        <ele>845.301</ele>
        <time>2011-02-06T09:52:01Z</time>
      </trkpt>
      <trkpt lat="43.8196" lon="5.55797">
        <ele>846.462</ele>
        <time>2011-02-06T09:52:07Z</time>
      </trkpt>
      <trkpt lat="43.8195" lon="5.55792">
        <ele>847.777</ele>
        <time>2011-02-06T09:52:13Z</time>
      </trkpt>
      <trkpt lat="43.81941" lon="5.5579">
        <ele>849.154</ele>
        <time>2011-02-06T09:52:19Z</time>
      </trkpt>
      <trkpt lat="43.81932" lon="5.55788">
        <ele>850.533</ele>
        <time>2011-02-06T09:52:25Z</time>
      </trkpt>
      <trkpt lat="43.81922" lon="5.55787">
        <ele>851.86</ele>
        <time>2011-02-06T09:52:31Z</time>
      </trkpt>
      <trkpt lat="43.81912" lon="5.55784">
        <ele>853.103</ele>
        <time>2011-02-06T09:52:37Z</time>
      </trkpt>
      <trkpt lat="43.81903" lon="5.55779">
        <ele>854.272</ele>
        <time>2011-02-06T09:52:43Z</time>
      </trkpt>
      <trkpt lat="43.81894" lon="5.55777">
        <ele>855.374</ele>
        <time>2011-02-06T09:52:49Z</time>
      </trkpt>
      <trkpt lat="43.81883" lon="5.55776">
        <ele>856.421</ele>
        <time>2011-02-06T09:52:55Z</time>
      </trkpt>
      <trkpt lat="43.81873" lon="5.55775">
        <ele>857.448</ele>
        <time>2011-02-06T09:53:01Z</time>
      </trkpt>
      <trkpt lat="43.81863" lon="5.55773">
        <ele>858.492</ele>
        <time>2011-02-06T09:53:08Z</time>
      </trkpt>
      <trkpt lat="43.81854" lon="5.55772">
        <ele>859.554</ele>
        <time>2011-02-06T09:53:14Z</time>
      </trkpt>
      <trkpt lat="43.81843" lon="5.55774">
        <ele>860.605</ele>
        <time>2011-02-06T09:53:20Z</time>
      </trkpt>
      <trkpt lat="43.81834" lon="5.55771">
        <ele>861.65</ele>
        <time>2011-02-06T09:53:25Z</time>
      </trkpt>
      <trkpt lat="43.81826" lon="5.55765">
        <ele>862.713</ele>
        <time>2011-02-06T09:53:31Z</time>
      </trkpt>
      <trkpt lat="43.8182" lon="5.55754">
        <ele>863.774</ele>
        <time>2011-02-06T09:53:38Z</time>
      </trkpt>
      <trkpt lat="43.81815" lon="5.55742">
        <ele>864.743</ele>
        <time>2011-02-06T09:53:44Z</time>
      </trkpt>
      <trkpt lat="43.81811" lon="5.5573">
        <ele>865.559</ele>
        <time>2011-02-06T09:53:49Z</time>
      </trkpt>
      <trkpt lat="43.81808" lon="5.55716">
        <ele>866.281</ele>
        <time>2011-02-06T09:53:56Z</time>
      </trkpt>
      <trkpt lat="43.81806" lon="5.55704">
        <ele>867.004</ele>
        <time>2011-02-06T09:54:02Z</time>
      </trkpt>
      <trkpt lat="43.81804" lon="5.55691">
        <ele>867.723</ele>
        <time>2011-02-06T09:54:08Z</time>
      </trkpt>
      <trkpt lat="43.81801" lon="5.55678">
        <ele>868.422</ele>
        <time>2011-02-06T09:54:15Z</time>
      </trkpt>
      <trkpt lat="43.81798" lon="5.55665">
        <ele>869.137</ele>
        <time>2011-02-06T09:54:22Z</time>
      </trkpt>
      <trkpt lat="43.81795" lon="5.55653">
        <ele>869.869</ele>
        <time>2011-02-06T09:54:29Z</time>
      </trkpt>
      <trkpt lat="43.81793" lon="5.5564">
        <ele>870.613</ele>
        <time>2011-02-06T09:54:36Z</time>
      </trkpt>
      <trkpt lat="43.8179" lon="5.55628">
        <ele>871.404</ele>
        <time>2011-02-06T09:54:43Z</time>
      </trkpt>
      <trkpt lat="43.81787" lon="5.55614">
        <ele>872.247</ele>
        <time>2011-02-06T09:54:50Z</time>
      </trkpt>
      <trkpt lat="43.81784" lon="5.55602">
        <ele>873.101</ele>
        <time>2011-02-06T09:54:56Z</time>
      </trkpt>
      <trkpt lat="43.81782" lon="5.55589">
        <ele>873.927</ele>
        <time>2011-02-06T09:55:03Z</time>
      </trkpt>
      <trkpt lat="43.81779" lon="5.55575">
        <ele>874.71</ele>
        <time>2011-02-06T09:55:10Z</time>
      </trkpt>
      <trkpt lat="43.81776" lon="5.55562">
        <ele>875.447</ele>
        <time>2011-02-06T09:55:17Z</time>
      </trkpt>
      <trkpt lat="43.81772" lon="5.55549">
        <ele>876.158</ele>
        <time>2011-02-06T09:55:24Z</time>
      </trkpt>
      <trkpt lat="43.81769" lon="5.55536">
        <ele>876.88</ele>
        <time>2011-02-06T09:55:31Z</time>
      </trkpt>
      <trkpt lat="43.81766" lon="5.55522">
        <ele>877.629</ele>
        <time>2011-02-06T09:55:38Z</time>
      </trkpt>
      <trkpt lat="43.81762" lon="5.5551">
        <ele>878.397</ele>
        <time>2011-02-06T09:55:44Z</time>
      </trkpt>
      <trkpt lat="43.81756" lon="5.55498">
        <ele>879.203</ele>
        <time>2011-02-06T09:55:52Z</time>
      </trkpt>
      <trkpt lat="43.81751" lon="5.55486">
        <ele>880.076</ele>
        <time>2011-02-06T09:55:58Z</time>
      </trkpt>
      <trkpt lat="43.81744" lon="5.55476">
        <ele>880.995</ele>
        <time>2011-02-06T09:56:04Z</time>
      </trkpt>
      <trkpt lat="43.81736" lon="5.55469">
        <ele>881.93</ele>
        <time>2011-02-06T09:56:10Z</time>
      </trkpt>
      <trkpt lat="43.81727" lon="5.55464">
        <ele>882.866</ele>
        <time>2011-02-06T09:56:15Z</time>
      </trkpt>
      <trkpt lat="43.81716" lon="5.55465">
        <ele>883.758</ele>
        <time>2011-02-06T09:56:21Z</time>
      </trkpt>
      <trkpt lat="43.81707" lon="5.55467">
        <ele>884.584</ele>
        <time>2011-02-06T09:56:28Z</time>
      </trkpt>
      <trkpt lat="43.81698" lon="5.55471">
        <ele>885.364</ele>
        <time>2011-02-06T09:56:34Z</time>
      </trkpt>
      <trkpt lat="43.81691" lon="5.55479">
        <ele>886.115</ele>
        <time>2011-02-06T09:56:40Z</time>
      </trkpt>
      <trkpt lat="43.81686" lon="5.55491">
        <ele>886.898</ele>
        <time>2011-02-06T09:56:46Z</time>
      </trkpt>
      <trkpt lat="43.8168" lon="5.55501">
        <ele>887.772</ele>
        <time>2011-02-06T09:56:54Z</time>
      </trkpt>
      <trkpt lat="43.81673" lon="5.5551">
        <ele>888.689</ele>
        <time>2011-02-06T09:57:05Z</time>
      </trkpt>
      <trkpt lat="43.81668" lon="5.55521">
        <ele>889.562</ele>
        <time>2011-02-06T09:57:12Z</time>
      </trkpt>
      <trkpt lat="43.81662" lon="5.55533">
        <ele>890.365</ele>
        <time>2011-02-06T09:57:18Z</time>
      </trkpt>
      <trkpt lat="43.81655" lon="5.55541">
        <ele>891.115</ele>
        <time>2011-02-06T09:57:25Z</time>
      </trkpt>
      <trkpt lat="43.81649" lon="5.55551">
        <ele>891.812</ele>
        <time>2011-02-06T09:57:34Z</time>
      </trkpt>
      <trkpt lat="43.81644" lon="5.55562">
        <ele>892.477</ele>
        <time>2011-02-06T09:57:42Z</time>
      </trkpt>
      <trkpt lat="43.81637" lon="5.55572">
        <ele>893.195</ele>
        <time>2011-02-06T09:57:49Z</time>
      </trkpt>
      <trkpt lat="43.81629" lon="5.5558">
        <ele>894.059</ele>
        <time>2011-02-06T09:57:55Z</time>
      </trkpt>
      <trkpt lat="43.81629" lon="5.5558">
        <ele>894.937</ele>
        <time>2011-02-06T09:58:12Z</time>
      </trkpt>
      <trkpt lat="43.81629" lon="5.5558">
        <ele>895.513</ele>
        <time>2011-02-06T09:58:25Z</time>
      </trkpt>
      <trkpt lat="43.81598" lon="5.55603">
        <ele>895.834</ele>
        <time>2011-02-06T09:58:54Z</time>
      </trkpt>
      <trkpt lat="43.81598" lon="5.55603">
        <ele>896.169</ele>
        <time>2011-02-06T09:59:11Z</time>
      </trkpt>
      <trkpt lat="43.81586" lon="5.55628">
        <ele>896.604</ele>
        <time>2011-02-06T09:59:28Z</time>
      </trkpt>
      <trkpt lat="43.81581" lon="5.55645">
        <ele>897.2</ele>
        <time>2011-02-06T09:59:31Z</time>
      </trkpt>
      <trkpt lat="43.81576" lon="5.55657">
        <ele>898.345</ele>
        <time>2011-02-06T09:59:33Z</time>
      </trkpt>
      <trkpt lat="43.81569" lon="5.55678">
        <ele>900.33</ele>
        <time>2011-02-06T09:59:36Z</time>
      </trkpt>
      <trkpt lat="43.81562" lon="5.55696">
        <ele>902.916</ele>
        <time>2011-02-06T09:59:39Z</time>
      </trkpt>
      <trkpt lat="43.81557" lon="5.55711">
        <ele>905.572</ele>
        <time>2011-02-06T09:59:42Z</time>
      </trkpt>
      <trkpt lat="43.81552" lon="5.55727">
        <ele>907.918</ele>
        <time>2011-02-06T09:59:45Z</time>
      </trkpt>
      <trkpt lat="43.81547" lon="5.55741">
        <ele>909.682</ele>
        <time>2011-02-06T09:59:48Z</time>
      </trkpt>
      <trkpt lat="43.81541" lon="5.55756">
        <ele>910.817</ele>
        <time>2011-02-06T09:59:51Z</time>
      </trkpt>
      <trkpt lat="43.81535" lon="5.55775">
        <ele>911.417</ele>
        <time>2011-02-06T09:59:54Z</time>
      </trkpt>
      <trkpt lat="43.81526" lon="5.55795">
        <ele>911.627</ele>
        <time>2011-02-06T09:59:57Z</time>
      </trkpt>
      <trkpt lat="43.8152" lon="5.55811">
        <ele>911.615</ele>
        <time>2011-02-06T09:59:59Z</time>
      </trkpt>
      <trkpt lat="43.81508" lon="5.55836">
        <ele>911.462</ele>
        <time>2011-02-06T10:00:02Z</time>
      </trkpt>
      <trkpt lat="43.815" lon="5.5586">
        <ele>910.974</ele>
        <time>2011-02-06T10:00:05Z</time>
      </trkpt>
      <trkpt lat="43.81492" lon="5.55883">
        <ele>909.994</ele>
        <time>2011-02-06T10:00:08Z</time>
      </trkpt>
      <trkpt lat="43.8148" lon="5.55904">
        <ele>908.602</ele>
        <time>2011-02-06T10:00:11Z</time>
      </trkpt>
      <trkpt lat="43.81467" lon="5.55925">
        <ele>907.002</ele>
        <time>2011-02-06T10:00:14Z</time>
      </trkpt>
      <trkpt lat="43.81455" lon="5.55946">
        <ele>905.512</ele>
        <time>2011-02-06T10:00:17Z</time>
      </trkpt>
      <trkpt lat="43.81442" lon="5.55968">
        <ele>904.2</ele>
        <time>2011-02-06T10:00:20Z</time>
      </trkpt>
      <trkpt lat="43.81434" lon="5.55981">
        <ele>902.989</ele>
        <time>2011-02-06T10:00:23Z</time>
      </trkpt>
      <trkpt lat="43.81426" lon="5.55993">
        <ele>902.145</ele>
        <time>2011-02-06T10:00:26Z</time>
      </trkpt>
      <trkpt lat="43.81419" lon="5.56004">
        <ele>901.841</ele>
        <time>2011-02-06T10:00:29Z</time>
      </trkpt>
      <trkpt lat="43.81411" lon="5.56016">
        <ele>901.85</ele>
        <time>2011-02-06T10:00:32Z</time>
      </trkpt>
      <trkpt lat="43.81405" lon="5.56027">
        <ele>901.945</ele>
        <time>2011-02-06T10:00:36Z</time>
      </trkpt>
      <trkpt lat="43.81397" lon="5.56041">
        <ele>902.016</ele>
        <time>2011-02-06T10:00:39Z</time>
      </trkpt>
      <trkpt lat="43.81388" lon="5.56054">
        <ele>902.04</ele>
        <time>2011-02-06T10:00:42Z</time>
      </trkpt>
      <trkpt lat="43.81378" lon="5.56067">
        <ele>902.014</ele>
        <time>2011-02-06T10:00:45Z</time>
      </trkpt>
      <trkpt lat="43.8137" lon="5.56079">
        <ele>901.792</ele>
        <time>2011-02-06T10:00:48Z</time>
      </trkpt>
      <trkpt lat="43.81362" lon="5.56093">
        <ele>901.241</ele>
        <time>2011-02-06T10:00:51Z</time>
      </trkpt>
      <trkpt lat="43.81356" lon="5.56107">
        <ele>900.489</ele>
        <time>2011-02-06T10:00:54Z</time>
      </trkpt>
      <trkpt lat="43.81353" lon="5.56123">
        <ele>899.725</ele>
        <time>2011-02-06T10:00:57Z</time>
      </trkpt>
      <trkpt lat="43.8135" lon="5.56137">
        <ele>898.383</ele>
        <time>2011-02-06T10:00:59Z</time>
      </trkpt>
      <trkpt lat="43.8134" lon="5.56156">
        <ele>895.9</ele>
        <time>2011-02-06T10:01:02Z</time>
      </trkpt>
      <trkpt lat="43.81332" lon="5.5617">
        <ele>893.05</ele>
        <time>2011-02-06T10:01:05Z</time>
      </trkpt>
      <trkpt lat="43.81322" lon="5.56187">
        <ele>890.89</ele>
        <time>2011-02-06T10:01:08Z</time>
      </trkpt>
      <trkpt lat="43.81311" lon="5.56204">
        <ele>889.33</ele>
        <time>2011-02-06T10:01:11Z</time>
      </trkpt>
      <trkpt lat="43.81304" lon="5.56218">
        <ele>887.849</ele>
        <time>2011-02-06T10:01:13Z</time>
      </trkpt>
      <trkpt lat="43.81295" lon="5.56237">
        <ele>886.277</ele>
        <time>2011-02-06T10:01:16Z</time>
      </trkpt>
      <trkpt lat="43.81284" lon="5.5626">
        <ele>884.818</ele>
        <time>2011-02-06T10:01:19Z</time>
      </trkpt>
      <trkpt lat="43.81276" lon="5.56277">
        <ele>883.735</ele>
        <time>2011-02-06T10:01:21Z</time>
      </trkpt>
      <trkpt lat="43.81268" lon="5.56293">
        <ele>883.09</ele>
        <time>2011-02-06T10:01:24Z</time>
      </trkpt>
      <trkpt lat="43.81257" lon="5.56308">
        <ele>882.593</ele>
        <time>2011-02-06T10:01:27Z</time>
      </trkpt>
      <trkpt lat="43.81249" lon="5.56317">
        <ele>881.939</ele>
        <time>2011-02-06T10:01:29Z</time>
      </trkpt>
      <trkpt lat="43.81239" lon="5.56333">
        <ele>881.209</ele>
        <time>2011-02-06T10:01:32Z</time>
      </trkpt>
      <trkpt lat="43.81239" lon="5.56333">
        <ele>880.627</ele>
        <time>2011-02-06T10:01:35Z</time>
      </trkpt>
      <trkpt lat="43.81239" lon="5.56333">
        <ele>880.19</ele>
        <time>2011-02-06T10:02:02Z</time>
      </trkpt>
      <trkpt lat="43.81249" lon="5.56347">
        <ele>879.835</ele>
        <time>2011-02-06T10:02:20Z</time>
      </trkpt>
      <trkpt lat="43.81261" lon="5.56349">
        <ele>879.475</ele>
        <time>2011-02-06T10:02:24Z</time>
      </trkpt>
      <trkpt lat="43.81271" lon="5.5635">
        <ele>878.824</ele>
        <time>2011-02-06T10:02:27Z</time>
      </trkpt>
      <trkpt lat="43.81283" lon="5.5635">
        <ele>877.034</ele>
        <time>2011-02-06T10:02:30Z</time>
      </trkpt>
      <trkpt lat="43.81292" lon="5.56349">
        <ele>873.94</ele>
        <time>2011-02-06T10:02:32Z</time>
      </trkpt>
      <trkpt lat="43.81308" lon="5.56348">
        <ele>870.913</ele>
        <time>2011-02-06T10:02:35Z</time>
      </trkpt>
      <trkpt lat="43.81327" lon="5.56349">
        <ele>868.65</ele>
        <time>2011-02-06T10:02:38Z</time>
      </trkpt>
      <trkpt lat="43.8134" lon="5.56347">
        <ele>866.373</ele>
        <time>2011-02-06T10:02:40Z</time>
      </trkpt>
      <trkpt lat="43.81352" lon="5.56343">
        <ele>863.746</ele>
        <time>2011-02-06T10:02:42Z</time>
      </trkpt>
      <trkpt lat="43.81363" lon="5.56341">
        <ele>861.204</ele>
        <time>2011-02-06T10:02:44Z</time>
      </trkpt>
      <trkpt lat="43.81381" lon="5.56339">
        <ele>859.278</ele>
        <time>2011-02-06T10:02:47Z</time>
      </trkpt>
      <trkpt lat="43.81398" lon="5.56338">
        <ele>858.184</ele>
        <time>2011-02-06T10:02:50Z</time>
      </trkpt>
      <trkpt lat="43.81418" lon="5.56336">
        <ele>857.68</ele>
        <time>2011-02-06T10:02:53Z</time>
      </trkpt>
      <trkpt lat="43.81433" lon="5.56333">
        <ele>857.443</ele>
        <time>2011-02-06T10:02:55Z</time>
      </trkpt>
      <trkpt lat="43.81458" lon="5.56338">
        <ele>857.281</ele>
        <time>2011-02-06T10:02:58Z</time>
      </trkpt>
      <trkpt lat="43.81481" lon="5.56346">
        <ele>857.145</ele>
        <time>2011-02-06T10:03:01Z</time>
      </trkpt>
      <trkpt lat="43.81494" lon="5.5635">
        <ele>857.031</ele>
        <time>2011-02-06T10:03:04Z</time>
      </trkpt>
      <trkpt lat="43.81504" lon="5.56352">
        <ele>856.892</ele>
        <time>2011-02-06T10:03:06Z</time>
      </trkpt>
      <trkpt lat="43.81513" lon="5.56353">
        <ele>856.723</ele>
        <time>2011-02-06T10:03:08Z</time>
      </trkpt>
      <trkpt lat="43.81528" lon="5.56355">
        <ele>856.502</ele>
        <time>2011-02-06T10:03:11Z</time>
      </trkpt>
      <trkpt lat="43.81543" lon="5.56359">
        <ele>856.203</ele>
        <time>2011-02-06T10:03:14Z</time>
      </trkpt>
      <trkpt lat="43.81556" lon="5.56363">
        <ele>855.913</ele>
        <time>2011-02-06T10:03:17Z</time>
      </trkpt>
      <trkpt lat="43.81565" lon="5.56367">
        <ele>855.522</ele>
        <time>2011-02-06T10:03:19Z</time>
      </trkpt>
      <trkpt lat="43.81581" lon="5.56368">
        <ele>854.46</ele>
        <time>2011-02-06T10:03:22Z</time>
      </trkpt>
      <trkpt lat="43.81592" lon="5.56368">
        <ele>852.454</ele>
        <time>2011-02-06T10:03:24Z</time>
      </trkpt>
      <trkpt lat="43.81603" lon="5.56369">
        <ele>850.019</ele>
        <time>2011-02-06T10:03:26Z</time>
      </trkpt>
      <trkpt lat="43.8162" lon="5.56366">
        <ele>847.697</ele>
        <time>2011-02-06T10:03:29Z</time>
      </trkpt>
      <trkpt lat="43.81636" lon="5.56362">
        <ele>845.679</ele>
        <time>2011-02-06T10:03:32Z</time>
      </trkpt>
      <trkpt lat="43.81652" lon="5.56354">
        <ele>843.925</ele>
        <time>2011-02-06T10:03:35Z</time>
      </trkpt>
      <trkpt lat="43.81666" lon="5.56344">
        <ele>842.107</ele>
        <time>2011-02-06T10:03:38Z</time>
      </trkpt>
      <trkpt lat="43.81683" lon="5.56331">
        <ele>840.036</ele>
        <time>2011-02-06T10:03:41Z</time>
      </trkpt>
      <trkpt lat="43.81691" lon="5.56324">
        <ele>837.916</ele>
        <time>2011-02-06T10:03:43Z</time>
      </trkpt>
      <trkpt lat="43.81704" lon="5.56311">
        <ele>835.844</ele>
        <time>2011-02-06T10:03:46Z</time>
      </trkpt>
      <trkpt lat="43.81715" lon="5.56303">
        <ele>833.835</ele>
        <time>2011-02-06T10:03:48Z</time>
      </trkpt>
      <trkpt lat="43.81731" lon="5.56292">
        <ele>832.182</ele>
        <time>2011-02-06T10:03:51Z</time>
      </trkpt>
      <trkpt lat="43.81749" lon="5.5628">
        <ele>831.17</ele>
        <time>2011-02-06T10:03:54Z</time>
      </trkpt>
      <trkpt lat="43.81759" lon="5.56272">
        <ele>830.623</ele>
        <time>2011-02-06T10:03:56Z</time>
      </trkpt>
      <trkpt lat="43.81772" lon="5.56259">
        <ele>830.086</ele>
        <time>2011-02-06T10:03:59Z</time>
      </trkpt>
      <trkpt lat="43.81782" lon="5.56248">
        <ele>829.298</ele>
        <time>2011-02-06T10:04:02Z</time>
      </trkpt>
      <trkpt lat="43.81789" lon="5.5624">
        <ele>828.368</ele>
        <time>2011-02-06T10:04:06Z</time>
      </trkpt>
      <trkpt lat="43.81797" lon="5.56232">
        <ele>827.469</ele>
        <time>2011-02-06T10:04:10Z</time>
      </trkpt>
      <trkpt lat="43.81808" lon="5.56233">
        <ele>826.637</ele>
        <time>2011-02-06T10:04:16Z</time>
      </trkpt>
      <trkpt lat="43.81808" lon="5.56233">
        <ele>825.972</ele>
        <time>2011-02-06T10:04:18Z</time>
      </trkpt>
      <trkpt lat="43.81808" lon="5.56233">
        <ele>825.585</ele>
        <time>2011-02-06T10:04:47Z</time>
      </trkpt>
      <trkpt lat="43.81836" lon="5.56219">
        <ele>825.362</ele>
        <time>2011-02-06T10:05:02Z</time>
      </trkpt>
      <trkpt lat="43.81845" lon="5.56213">
        <ele>825.121</ele>
        <time>2011-02-06T10:05:07Z</time>
      </trkpt>
      <trkpt lat="43.81854" lon="5.56209">
        <ele>824.71</ele>
        <time>2011-02-06T10:05:12Z</time>
      </trkpt>
      <trkpt lat="43.8186" lon="5.56219">
        <ele>823.387</ele>
        <time>2011-02-06T10:05:19Z</time>
      </trkpt>
      <trkpt lat="43.8186" lon="5.56232">
        <ele>820.785</ele>
        <time>2011-02-06T10:05:27Z</time>
      </trkpt>
      <trkpt lat="43.81861" lon="5.56247">
        <ele>817.987</ele>
        <time>2011-02-06T10:05:35Z</time>
      </trkpt>
      <trkpt lat="43.81862" lon="5.5626">
        <ele>816.04</ele>
        <time>2011-02-06T10:05:42Z</time>
      </trkpt>
      <trkpt lat="43.81863" lon="5.56278">
        <ele>814.815</ele>
        <time>2011-02-06T10:05:51Z</time>
      </trkpt>
      <trkpt lat="43.81863" lon="5.563">
        <ele>814.047</ele>
        <time>2011-02-06T10:06:01Z</time>
      </trkpt>
      <trkpt lat="43.8186" lon="5.56314">
        <ele>813.684</ele>
        <time>2011-02-06T10:06:07Z</time>
      </trkpt>
      <trkpt lat="43.8186" lon="5.56328">
        <ele>813.629</ele>
        <time>2011-02-06T10:06:13Z</time>
      </trkpt>
      <trkpt lat="43.81862" lon="5.56342">
        <ele>813.804</ele>
        <time>2011-02-06T10:06:18Z</time>
      </trkpt>
      <trkpt lat="43.81863" lon="5.56356">
        <ele>814.275</ele>
        <time>2011-02-06T10:06:23Z</time>
      </trkpt>
      <trkpt lat="43.81865" lon="5.56371">
        <ele>815.04</ele>
        <time>2011-02-06T10:06:27Z</time>
      </trkpt>
      <trkpt lat="43.81865" lon="5.56385">
        <ele>815.936</ele>
        <time>2011-02-06T10:06:35Z</time>
      </trkpt>
      <trkpt lat="43.81862" lon="5.56399">
        <ele>816.792</ele>
        <time>2011-02-06T10:06:46Z</time>
      </trkpt>
      <trkpt lat="43.81856" lon="5.56415">
        <ele>817.511</ele>
        <time>2011-02-06T10:06:52Z</time>
      </trkpt>
      <trkpt lat="43.81853" lon="5.5643">
        <ele>818.14</ele>
        <time>2011-02-06T10:06:56Z</time>
      </trkpt>
      <trkpt lat="43.81852" lon="5.56445">
        <ele>818.833</ele>
        <time>2011-02-06T10:07:00Z</time>
      </trkpt>
      <trkpt lat="43.81851" lon="5.56458">
        <ele>819.652</ele>
        <time>2011-02-06T10:07:04Z</time>
      </trkpt>
      <trkpt lat="43.81852" lon="5.56475">
        <ele>820.463</ele>
        <time>2011-02-06T10:07:08Z</time>
      </trkpt>
      <trkpt lat="43.81855" lon="5.56496">
        <ele>821.152</ele>
        <time>2011-02-06T10:07:11Z</time>
      </trkpt>
      <trkpt lat="43.81857" lon="5.56513">
        <ele>821.779</ele>
        <time>2011-02-06T10:07:14Z</time>
      </trkpt>
      <trkpt lat="43.81858" lon="5.56529">
        <ele>822.454</ele>
        <time>2011-02-06T10:07:17Z</time>
      </trkpt>
      <trkpt lat="43.81857" lon="5.56542">
        <ele>823.177</ele>
        <time>2011-02-06T10:07:21Z</time>
      </trkpt>
      <trkpt lat="43.81857" lon="5.56556">
        <ele>823.873</ele>
        <time>2011-02-06T10:07:25Z</time>
      </trkpt>
      <trkpt lat="43.81861" lon="5.56568">
        <ele>824.473</ele>
        <time>2011-02-06T10:07:29Z</time>
      </trkpt>
      <trkpt lat="43.81865" lon="5.56581">
        <ele>824.981</ele>
        <time>2011-02-06T10:07:33Z</time>
      </trkpt>
      <trkpt lat="43.81873" lon="5.56591">
        <ele>825.444</ele>
        <time>2011-02-06T10:07:38Z</time>
      </trkpt>
      <trkpt lat="43.81881" lon="5.56599">
        <ele>825.897</ele>
        <time>2011-02-06T10:07:43Z</time>
      </trkpt>
      <trkpt lat="43.81889" lon="5.56606">
        <ele>826.333</ele>
        <time>2011-02-06T10:07:47Z</time>
      </trkpt>
      <trkpt lat="43.81899" lon="5.56612">
        <ele>826.748</ele>
        <time>2011-02-06T10:07:51Z</time>
      </trkpt>
      <trkpt lat="43.81909" lon="5.5662">
        <ele>827.156</ele>
        <time>2011-02-06T10:07:55Z</time>
      </trkpt>
      <trkpt lat="43.81917" lon="5.56626">
        <ele>827.574</ele>
        <time>2011-02-06T10:07:58Z</time>
      </trkpt>
      <trkpt lat="43.81925" lon="5.56632">
        <ele>828.011</ele>
        <time>2011-02-06T10:08:01Z</time>
      </trkpt>
      <trkpt lat="43.81933" lon="5.56643">
        <ele>828.475</ele>
        <time>2011-02-06T10:08:04Z</time>
      </trkpt>
      <trkpt lat="43.8194" lon="5.56655">
        <ele>828.929</ele>
        <time>2011-02-06T10:08:07Z</time>
      </trkpt>
      <trkpt lat="43.81948" lon="5.56668">
        <ele>829.319</ele>
        <time>2011-02-06T10:08:10Z</time>
      </trkpt>
      <trkpt lat="43.81954" lon="5.56678">
        <ele>829.629</ele>
        <time>2011-02-06T10:08:13Z</time>
      </trkpt>
      <trkpt lat="43.81961" lon="5.56691">
        <ele>829.962</ele>
        <time>2011-02-06T10:08:17Z</time>
      </trkpt>
      <trkpt lat="43.81967" lon="5.56704">
        <ele>830.534</ele>
        <time>2011-02-06T10:08:21Z</time>
      </trkpt>
      <trkpt lat="43.81967" lon="5.56717">
        <ele>831.313</ele>
        <time>2011-02-06T10:08:25Z</time>
      </trkpt>
      <trkpt lat="43.81966" lon="5.56733">
        <ele>831.932</ele>
        <time>2011-02-06T10:08:29Z</time>
      </trkpt>
      <trkpt lat="43.81965" lon="5.5675">
        <ele>832.189</ele>
        <time>2011-02-06T10:08:32Z</time>
      </trkpt>
      <trkpt lat="43.81962" lon="5.56764">
        <ele>832.206</ele>
        <time>2011-02-06T10:08:36Z</time>
      </trkpt>
      <trkpt lat="43.81956" lon="5.56778">
        <ele>832.134</ele>
        <time>2011-02-06T10:08:41Z</time>
      </trkpt>
      <trkpt lat="43.8195" lon="5.56789">
        <ele>832.031</ele>
        <time>2011-02-06T10:08:45Z</time>
      </trkpt>
      <trkpt lat="43.81943" lon="5.568">
        <ele>831.88</ele>
        <time>2011-02-06T10:08:49Z</time>
      </trkpt>
      <trkpt lat="43.81936" lon="5.5681">
        <ele>831.637</ele>
        <time>2011-02-06T10:08:53Z</time>
      </trkpt>
      <trkpt lat="43.8193" lon="5.56823">
        <ele>831.305</ele>
        <time>2011-02-06T10:08:57Z</time>
      </trkpt>
      <trkpt lat="43.81925" lon="5.56835">
        <ele>830.965</ele>
        <time>2011-02-06T10:09:01Z</time>
      </trkpt>
      <trkpt lat="43.8192" lon="5.56846">
        <ele>830.659</ele>
        <time>2011-02-06T10:09:05Z</time>
      </trkpt>
      <trkpt lat="43.81916" lon="5.56859">
        <ele>830.344</ele>
        <time>2011-02-06T10:09:10Z</time>
      </trkpt>
      <trkpt lat="43.81912" lon="5.5687">
        <ele>830.024</ele>
        <time>2011-02-06T10:09:14Z</time>
      </trkpt>
      <trkpt lat="43.81907" lon="5.56882">
        <ele>829.767</ele>
        <time>2011-02-06T10:09:18Z</time>
      </trkpt>
      <trkpt lat="43.81903" lon="5.56895">
        <ele>829.582</ele>
        <time>2011-02-06T10:09:22Z</time>
      </trkpt>
      <trkpt lat="43.819" lon="5.56911">
        <ele>829.406</ele>
        <time>2011-02-06T10:09:26Z</time>
      </trkpt>
      <trkpt lat="43.81898" lon="5.56925">
        <ele>829.194</ele>
        <time>2011-02-06T10:09:29Z</time>
      </trkpt>
      <trkpt lat="43.81895" lon="5.56938">
        <ele>828.939</ele>
        <time>2011-02-06T10:09:32Z</time>
      </trkpt>
      <trkpt lat="43.81895" lon="5.56938">
        <ele>828.678</ele>
        <time>2011-02-06T10:09:35Z</time>
      </trkpt>
      <trkpt lat="43.81895" lon="5.56938">
        <ele>828.477</ele>
        <time>2011-02-06T10:10:00Z</time>
      </trkpt>
      <trkpt lat="43.81896" lon="5.56961">
        <ele>828.367</ele>
        <time>2011-02-06T10:23:31Z</time>
      </trkpt>
      <trkpt lat="43.81896" lon="5.56974">
        <ele>828.278</ele>
        <time>2011-02-06T10:23:35Z</time>
      </trkpt>
      <trkpt lat="43.81901" lon="5.56985">
        <ele>828.11</ele>
        <time>2011-02-06T10:23:39Z</time>
      </trkpt>
      <trkpt lat="43.81909" lon="5.56994">
        <ele>827.32</ele>
        <time>2011-02-06T10:23:43Z</time>
      </trkpt>
      <trkpt lat="43.81917" lon="5.57001">
        <ele>825.677</ele>
        <time>2011-02-06T10:23:48Z</time>
      </trkpt>
      <trkpt lat="43.81925" lon="5.57015">
        <ele>824.094</ele>
        <time>2011-02-06T10:23:52Z</time>
      </trkpt>
      <trkpt lat="43.81931" lon="5.57025">
        <ele>823.372</ele>
        <time>2011-02-06T10:23:54Z</time>
      </trkpt>
      <trkpt lat="43.81938" lon="5.57037">
        <ele>823.293</ele>
        <time>2011-02-06T10:23:56Z</time>
      </trkpt>
      <trkpt lat="43.81947" lon="5.57051">
        <ele>823.488</ele>
        <time>2011-02-06T10:23:58Z</time>
      </trkpt>
      <trkpt lat="43.81959" lon="5.57066">
        <ele>823.746</ele>
        <time>2011-02-06T10:24:01Z</time>
      </trkpt>
      <trkpt lat="43.81966" lon="5.57076">
        <ele>824.002</ele>
        <time>2011-02-06T10:24:03Z</time>
      </trkpt>
      <trkpt lat="43.81976" lon="5.5709">
        <ele>824.259</ele>
        <time>2011-02-06T10:24:06Z</time>
      </trkpt>
      <trkpt lat="43.81983" lon="5.571">
        <ele>824.524</ele>
        <time>2011-02-06T10:24:08Z</time>
      </trkpt>
      <trkpt lat="43.81991" lon="5.5711">
        <ele>824.798</ele>
        <time>2011-02-06T10:24:10Z</time>
      </trkpt>
      <trkpt lat="43.82006" lon="5.57123">
        <ele>825.101</ele>
        <time>2011-02-06T10:24:13Z</time>
      </trkpt>
      <trkpt lat="43.82023" lon="5.57132">
        <ele>825.431</ele>
        <time>2011-02-06T10:24:16Z</time>
      </trkpt>
      <trkpt lat="43.82037" lon="5.57137">
        <ele>825.738</ele>
        <time>2011-02-06T10:24:18Z</time>
      </trkpt>
      <trkpt lat="43.82051" lon="5.57142">
        <ele>825.965</ele>
        <time>2011-02-06T10:24:20Z</time>
      </trkpt>
      <trkpt lat="43.82062" lon="5.57148">
        <ele>826.081</ele>
        <time>2011-02-06T10:24:22Z</time>
      </trkpt>
      <trkpt lat="43.8208" lon="5.57154">
        <ele>826.103</ele>
        <time>2011-02-06T10:24:25Z</time>
      </trkpt>
      <trkpt lat="43.82099" lon="5.57157">
        <ele>826.086</ele>
        <time>2011-02-06T10:24:28Z</time>
      </trkpt>
      <trkpt lat="43.82112" lon="5.57161">
        <ele>826.056</ele>
        <time>2011-02-06T10:24:30Z</time>
      </trkpt>
      <trkpt lat="43.82134" lon="5.57168">
        <ele>825.949</ele>
        <time>2011-02-06T10:24:33Z</time>
      </trkpt>
      <trkpt lat="43.82148" lon="5.57172">
        <ele>825.665</ele>
        <time>2011-02-06T10:24:35Z</time>
      </trkpt>
      <trkpt lat="43.82167" lon="5.57179">
        <ele>825.247</ele>
        <time>2011-02-06T10:24:38Z</time>
      </trkpt>
      <trkpt lat="43.82178" lon="5.57183">
        <ele>824.823</ele>
        <time>2011-02-06T10:24:40Z</time>
      </trkpt>
      <trkpt lat="43.82187" lon="5.57189">
        <ele>824.388</ele>
        <time>2011-02-06T10:24:45Z</time>
      </trkpt>
      <trkpt lat="43.82187" lon="5.57189">
        <ele>823.924</ele>
        <time>2011-02-06T10:24:46Z</time>
      </trkpt>
      <trkpt lat="43.82182" lon="5.57214">
        <ele>823.447</ele>
        <time>2011-02-06T10:24:55Z</time>
      </trkpt>
      <trkpt lat="43.82177" lon="5.57224">
        <ele>822.91</ele>
        <time>2011-02-06T10:24:59Z</time>
      </trkpt>
      <trkpt lat="43.82168" lon="5.57234">
        <ele>822.368</ele>
        <time>2011-02-06T10:25:03Z</time>
      </trkpt>
      <trkpt lat="43.82155" lon="5.57243">
        <ele>821.892</ele>
        <time>2011-02-06T10:25:06Z</time>
      </trkpt>
      <trkpt lat="43.82141" lon="5.57252">
        <ele>821.425</ele>
        <time>2011-02-06T10:25:09Z</time>
      </trkpt>
      <trkpt lat="43.82129" lon="5.57258">
        <ele>820.998</ele>
        <time>2011-02-06T10:25:12Z</time>
      </trkpt>
      <trkpt lat="43.82119" lon="5.57263">
        <ele>820.732</ele>
        <time>2011-02-06T10:25:15Z</time>
      </trkpt>
      <trkpt lat="43.82109" lon="5.57267">
        <ele>820.636</ele>
        <time>2011-02-06T10:25:19Z</time>
      </trkpt>
      <trkpt lat="43.82099" lon="5.5727">
        <ele>820.624</ele>
        <time>2011-02-06T10:25:22Z</time>
      </trkpt>
      <trkpt lat="43.82089" lon="5.57275">
        <ele>820.618</ele>
        <time>2011-02-06T10:25:25Z</time>
      </trkpt>
      <trkpt lat="43.82079" lon="5.57276">
        <ele>820.606</ele>
        <time>2011-02-06T10:25:28Z</time>
      </trkpt>
      <trkpt lat="43.82068" lon="5.57277">
        <ele>820.598</ele>
        <time>2011-02-06T10:25:32Z</time>
      </trkpt>
      <trkpt lat="43.82058" lon="5.57279">
        <ele>820.57</ele>
        <time>2011-02-06T10:25:36Z</time>
      </trkpt>
      <trkpt lat="43.82049" lon="5.57281">
        <ele>820.459</ele>
        <time>2011-02-06T10:25:39Z</time>
      </trkpt>
      <trkpt lat="43.8204" lon="5.57284">
        <ele>820.219</ele>
        <time>2011-02-06T10:25:42Z</time>
      </trkpt>
      <trkpt lat="43.82031" lon="5.5729">
        <ele>819.861</ele>
        <time>2011-02-06T10:25:47Z</time>
      </trkpt>
      <trkpt lat="43.82025" lon="5.57302">
        <ele>819.454</ele>
        <time>2011-02-06T10:25:51Z</time>
      </trkpt>
      <trkpt lat="43.82021" lon="5.57315">
        <ele>819.081</ele>
        <time>2011-02-06T10:25:55Z</time>
      </trkpt>
      <trkpt lat="43.82018" lon="5.57327">
        <ele>818.758</ele>
        <time>2011-02-06T10:25:59Z</time>
      </trkpt>
      <trkpt lat="43.82015" lon="5.57339">
        <ele>818.429</ele>
        <time>2011-02-06T10:26:03Z</time>
      </trkpt>
      <trkpt lat="43.82011" lon="5.57351">
        <ele>818.061</ele>
        <time>2011-02-06T10:26:06Z</time>
      </trkpt>
      <trkpt lat="43.82009" lon="5.57369">
        <ele>817.674</ele>
        <time>2011-02-06T10:26:09Z</time>
      </trkpt>
      <trkpt lat="43.82005" lon="5.57382">
        <ele>817.291</ele>
        <time>2011-02-06T10:26:11Z</time>
      </trkpt>
      <trkpt lat="43.82001" lon="5.57399">
        <ele>816.941</ele>
        <time>2011-02-06T10:26:14Z</time>
      </trkpt>
      <trkpt lat="43.81999" lon="5.57413">
        <ele>816.663</ele>
        <time>2011-02-06T10:26:16Z</time>
      </trkpt>
      <trkpt lat="43.81998" lon="5.57438">
        <ele>816.475</ele>
        <time>2011-02-06T10:26:19Z</time>
      </trkpt>
      <trkpt lat="43.81999" lon="5.57454">
        <ele>816.358</ele>
        <time>2011-02-06T10:26:21Z</time>
      </trkpt>
      <trkpt lat="43.81999" lon="5.57476">
        <ele>816.17</ele>
        <time>2011-02-06T10:26:24Z</time>
      </trkpt>
      <trkpt lat="43.81998" lon="5.57496">
        <ele>815.634</ele>
        <time>2011-02-06T10:26:27Z</time>
      </trkpt>
      <trkpt lat="43.81996" lon="5.57515">
        <ele>814.779</ele>
        <time>2011-02-06T10:26:30Z</time>
      </trkpt>
      <trkpt lat="43.81996" lon="5.57532">
        <ele>814.014</ele>
        <time>2011-02-06T10:26:32Z</time>
      </trkpt>
      <trkpt lat="43.81996" lon="5.57546">
        <ele>813.45</ele>
        <time>2011-02-06T10:26:34Z</time>
      </trkpt>
      <trkpt lat="43.81996" lon="5.57565">
        <ele>812.781</ele>
        <time>2011-02-06T10:26:37Z</time>
      </trkpt>
      <trkpt lat="43.81999" lon="5.57582">
        <ele>811.936</ele>
        <time>2011-02-06T10:26:40Z</time>
      </trkpt>
      <trkpt lat="43.82001" lon="5.57598">
        <ele>811.03</ele>
        <time>2011-02-06T10:26:43Z</time>
      </trkpt>
      <trkpt lat="43.82003" lon="5.57617">
        <ele>810.041</ele>
        <time>2011-02-06T10:26:46Z</time>
      </trkpt>
      <trkpt lat="43.82007" lon="5.57637">
        <ele>808.988</ele>
        <time>2011-02-06T10:26:49Z</time>
      </trkpt>
      <trkpt lat="43.82012" lon="5.57659">
        <ele>808.022</ele>
        <time>2011-02-06T10:26:52Z</time>
      </trkpt>
      <trkpt lat="43.8201" lon="5.5768">
        <ele>807.308</ele>
        <time>2011-02-06T10:26:55Z</time>
      </trkpt>
      <trkpt lat="43.82007" lon="5.57702">
        <ele>806.897</ele>
        <time>2011-02-06T10:26:58Z</time>
      </trkpt>
      <trkpt lat="43.82006" lon="5.57719">
        <ele>806.631</ele>
        <time>2011-02-06T10:27:00Z</time>
      </trkpt>
      <trkpt lat="43.82007" lon="5.57741">
        <ele>806.316</ele>
        <time>2011-02-06T10:27:03Z</time>
      </trkpt>
      <trkpt lat="43.82006" lon="5.57753">
        <ele>805.864</ele>
        <time>2011-02-06T10:27:05Z</time>
      </trkpt>
      <trkpt lat="43.82003" lon="5.57767">
        <ele>805.299</ele>
        <time>2011-02-06T10:27:08Z</time>
      </trkpt>
      <trkpt lat="43.81999" lon="5.5778">
        <ele>804.692</ele>
        <time>2011-02-06T10:27:12Z</time>
      </trkpt>
      <trkpt lat="43.81994" lon="5.57793">
        <ele>804.145</ele>
        <time>2011-02-06T10:27:16Z</time>
      </trkpt>
      <trkpt lat="43.81989" lon="5.57805">
        <ele>803.731</ele>
        <time>2011-02-06T10:27:21Z</time>
      </trkpt>
      <trkpt lat="43.81989" lon="5.57805">
        <ele>803.383</ele>
        <time>2011-02-06T10:27:22Z</time>
      </trkpt>
      <trkpt lat="43.81973" lon="5.57835">
        <ele>803.031</ele>
        <time>2011-02-06T10:27:33Z</time>
      </trkpt>
      <trkpt lat="43.81965" lon="5.57841">
        <ele>802.647</ele>
        <time>2011-02-06T10:27:39Z</time>
      </trkpt>
      <trkpt lat="43.81965" lon="5.57841">
        <ele>802.215</ele>
        <time>2011-02-06T10:27:41Z</time>
      </trkpt>
      <trkpt lat="43.81943" lon="5.57868">
        <ele>801.738</ele>
        <time>2011-02-06T10:27:57Z</time>
      </trkpt>
      <trkpt lat="43.81934" lon="5.57873">
        <ele>801.105</ele>
        <time>2011-02-06T10:28:05Z</time>
      </trkpt>
      <trkpt lat="43.81926" lon="5.57881">
        <ele>800.34</ele>
        <time>2011-02-06T10:28:12Z</time>
      </trkpt>
      <trkpt lat="43.81916" lon="5.57885">
        <ele>799.778</ele>
        <time>2011-02-06T10:28:17Z</time>
      </trkpt>
      <trkpt lat="43.81907" lon="5.57886">
        <ele>799.588</ele>
        <time>2011-02-06T10:28:22Z</time>
      </trkpt>
      <trkpt lat="43.81898" lon="5.57889">
        <ele>799.693</ele>
        <time>2011-02-06T10:28:29Z</time>
      </trkpt>
      <trkpt lat="43.81889" lon="5.57894">
        <ele>799.95</ele>
        <time>2011-02-06T10:28:36Z</time>
      </trkpt>
      <trkpt lat="43.81881" lon="5.57904">
        <ele>800.224</ele>
        <time>2011-02-06T10:28:42Z</time>
      </trkpt>
      <trkpt lat="43.81873" lon="5.5791">
        <ele>800.528</ele>
        <time>2011-02-06T10:28:45Z</time>
      </trkpt>
      <trkpt lat="43.81863" lon="5.57915">
        <ele>800.947</ele>
        <time>2011-02-06T10:28:50Z</time>
      </trkpt>
      <trkpt lat="43.81854" lon="5.57917">
        <ele>801.5</ele>
        <time>2011-02-06T10:28:56Z</time>
      </trkpt>
      <trkpt lat="43.81847" lon="5.57924">
        <ele>802.146</ele>
        <time>2011-02-06T10:29:03Z</time>
      </trkpt>
      <trkpt lat="43.81837" lon="5.57929">
        <ele>802.853</ele>
        <time>2011-02-06T10:29:09Z</time>
      </trkpt>
      <trkpt lat="43.81827" lon="5.57933">
        <ele>803.651</ele>
        <time>2011-02-06T10:29:12Z</time>
      </trkpt>
      <trkpt lat="43.81817" lon="5.57937">
        <ele>804.569</ele>
        <time>2011-02-06T10:29:16Z</time>
      </trkpt>
      <trkpt lat="43.81807" lon="5.57941">
        <ele>805.541</ele>
        <time>2011-02-06T10:29:21Z</time>
      </trkpt>
      <trkpt lat="43.81802" lon="5.57951">
        <ele>806.428</ele>
        <time>2011-02-06T10:29:25Z</time>
      </trkpt>
      <trkpt lat="43.81802" lon="5.57951">
        <ele>807.055</ele>
        <time>2011-02-06T10:29:40Z</time>
      </trkpt>
      <trkpt lat="43.81795" lon="5.57976">
        <ele>807.44</ele>
        <time>2011-02-06T10:29:59Z</time>
      </trkpt>
      <trkpt lat="43.81797" lon="5.57991">
        <ele>807.844</ele>
        <time>2011-02-06T10:30:03Z</time>
      </trkpt>
      <trkpt lat="43.81797" lon="5.58007">
        <ele>808.386</ele>
        <time>2011-02-06T10:30:07Z</time>
      </trkpt>
      <trkpt lat="43.81803" lon="5.58019">
        <ele>809.13</ele>
        <time>2011-02-06T10:30:12Z</time>
      </trkpt>
      <trkpt lat="43.81804" lon="5.58033">
        <ele>810.122</ele>
        <time>2011-02-06T10:30:17Z</time>
      </trkpt>
      <trkpt lat="43.81806" lon="5.58047">
        <ele>811.094</ele>
        <time>2011-02-06T10:30:21Z</time>
      </trkpt>
      <trkpt lat="43.81806" lon="5.58047">
        <ele>811.72</ele>
        <time>2011-02-06T10:30:25Z</time>
      </trkpt>
      <trkpt lat="43.81805" lon="5.58074">
        <ele>812.034</ele>
        <time>2011-02-06T10:30:36Z</time>
      </trkpt>
      <trkpt lat="43.81807" lon="5.58089">
        <ele>812.242</ele>
        <time>2011-02-06T10:30:41Z</time>
      </trkpt>
      <trkpt lat="43.81806" lon="5.58104">
        <ele>812.469</ele>
        <time>2011-02-06T10:30:47Z</time>
      </trkpt>
      <trkpt lat="43.81806" lon="5.58119">
        <ele>812.762</ele>
        <time>2011-02-06T10:30:51Z</time>
      </trkpt>
      <trkpt lat="43.81811" lon="5.58133">
        <ele>813.114</ele>
        <time>2011-02-06T10:30:56Z</time>
      </trkpt>
      <trkpt lat="43.81813" lon="5.58147">
        <ele>813.388</ele>
        <time>2011-02-06T10:31:00Z</time>
      </trkpt>
      <trkpt lat="43.81811" lon="5.58162">
        <ele>813.494</ele>
        <time>2011-02-06T10:31:04Z</time>
      </trkpt>
      <trkpt lat="43.81811" lon="5.58176">
        <ele>813.496</ele>
        <time>2011-02-06T10:31:08Z</time>
      </trkpt>
      <trkpt lat="43.81811" lon="5.58176">
        <ele>813.454</ele>
        <time>2011-02-06T10:31:11Z</time>
      </trkpt>
      <trkpt lat="43.81824" lon="5.58191">
        <ele>813.389</ele>
        <time>2011-02-06T10:31:25Z</time>
      </trkpt>
      <trkpt lat="43.81834" lon="5.58193">
        <ele>813.317</ele>
        <time>2011-02-06T10:31:29Z</time>
      </trkpt>
      <trkpt lat="43.81846" lon="5.58194">
        <ele>813.262</ele>
        <time>2011-02-06T10:31:33Z</time>
      </trkpt>
      <trkpt lat="43.81856" lon="5.58195">
        <ele>813.23</ele>
        <time>2011-02-06T10:31:36Z</time>
      </trkpt>
      <trkpt lat="43.81866" lon="5.58198">
        <ele>813.212</ele>
        <time>2011-02-06T10:31:40Z</time>
      </trkpt>
      <trkpt lat="43.81875" lon="5.58196">
        <ele>813.192</ele>
        <time>2011-02-06T10:31:45Z</time>
      </trkpt>
      <trkpt lat="43.81875" lon="5.58196">
        <ele>813.171</ele>
        <time>2011-02-06T10:31:49Z</time>
      </trkpt>
      <trkpt lat="43.81904" lon="5.58182">
        <ele>813.147</ele>
        <time>2011-02-06T10:32:28Z</time>
      </trkpt>
      <trkpt lat="43.81914" lon="5.58182">
        <ele>813.101</ele>
        <time>2011-02-06T10:32:35Z</time>
      </trkpt>
      <trkpt lat="43.81923" lon="5.58177">
        <ele>812.934</ele>
        <time>2011-02-06T10:32:39Z</time>
      </trkpt>
      <trkpt lat="43.81932" lon="5.5817">
        <ele>812.429</ele>
        <time>2011-02-06T10:32:44Z</time>
      </trkpt>
      <trkpt lat="43.81942" lon="5.58166">
        <ele>811.509</ele>
        <time>2011-02-06T10:32:48Z</time>
      </trkpt>
      <trkpt lat="43.81952" lon="5.58167">
        <ele>810.458</ele>
        <time>2011-02-06T10:32:52Z</time>
      </trkpt>
      <trkpt lat="43.8196" lon="5.58176">
        <ele>809.593</ele>
        <time>2011-02-06T10:32:56Z</time>
      </trkpt>
      <trkpt lat="43.81969" lon="5.58178">
        <ele>808.957</ele>
        <time>2011-02-06T10:33:00Z</time>
      </trkpt>
      <trkpt lat="43.81979" lon="5.58182">
        <ele>808.423</ele>
        <time>2011-02-06T10:33:06Z</time>
      </trkpt>
      <trkpt lat="43.81988" lon="5.58182">
        <ele>807.849</ele>
        <time>2011-02-06T10:33:12Z</time>
      </trkpt>
      <trkpt lat="43.81998" lon="5.58175">
        <ele>807.17</ele>
        <time>2011-02-06T10:33:18Z</time>
      </trkpt>
      <trkpt lat="43.82004" lon="5.58163">
        <ele>806.366</ele>
        <time>2011-02-06T10:33:27Z</time>
      </trkpt>
      <trkpt lat="43.82014" lon="5.58159">
        <ele>805.395</ele>
        <time>2011-02-06T10:33:33Z</time>
      </trkpt>
      <trkpt lat="43.82023" lon="5.58159">
        <ele>804.242</ele>
        <time>2011-02-06T10:33:38Z</time>
      </trkpt>
      <trkpt lat="43.82032" lon="5.58162">
        <ele>802.917</ele>
        <time>2011-02-06T10:33:44Z</time>
      </trkpt>
      <trkpt lat="43.82041" lon="5.58165">
        <ele>801.447</ele>
        <time>2011-02-06T10:33:48Z</time>
      </trkpt>
      <trkpt lat="43.82051" lon="5.58172">
        <ele>799.943</ele>
        <time>2011-02-06T10:33:53Z</time>
      </trkpt>
      <trkpt lat="43.82061" lon="5.58171">
        <ele>798.442</ele>
        <time>2011-02-06T10:33:59Z</time>
      </trkpt>
      <trkpt lat="43.82061" lon="5.58171">
        <ele>797.08</ele>
        <time>2011-02-06T10:34:03Z</time>
      </trkpt>
      <trkpt lat="43.82086" lon="5.58202">
        <ele>796.029</ele>
        <time>2011-02-06T10:34:25Z</time>
      </trkpt>
      <trkpt lat="43.82089" lon="5.58215">
        <ele>795.024</ele>
        <time>2011-02-06T10:34:31Z</time>
      </trkpt>
      <trkpt lat="43.82093" lon="5.58228">
        <ele>793.6</ele>
        <time>2011-02-06T10:34:37Z</time>
      </trkpt>
      <trkpt lat="43.82097" lon="5.58239">
        <ele>790.693</ele>
        <time>2011-02-06T10:34:43Z</time>
      </trkpt>
      <trkpt lat="43.82102" lon="5.58252">
        <ele>785.835</ele>
        <time>2011-02-06T10:34:50Z</time>
      </trkpt>
      <trkpt lat="43.82102" lon="5.58252">
        <ele>781.028</ele>
        <time>2011-02-06T10:35:04Z</time>
      </trkpt>
      <trkpt lat="43.82118" lon="5.58293">
        <ele>778.036</ele>
        <time>2011-02-06T10:35:25Z</time>
      </trkpt>
      <trkpt lat="43.82121" lon="5.58306">
        <ele>776.053</ele>
        <time>2011-02-06T10:35:31Z</time>
      </trkpt>
      <trkpt lat="43.82124" lon="5.58318">
        <ele>773.87</ele>
        <time>2011-02-06T10:35:35Z</time>
      </trkpt>
      <trkpt lat="43.82133" lon="5.58326">
        <ele>769.795</ele>
        <time>2011-02-06T10:35:41Z</time>
      </trkpt>
      <trkpt lat="43.82143" lon="5.58328">
        <ele>763.18</ele>
        <time>2011-02-06T10:35:45Z</time>
      </trkpt>
      <trkpt lat="43.82154" lon="5.58329">
        <ele>756.521</ele>
        <time>2011-02-06T10:35:48Z</time>
      </trkpt>
      <trkpt lat="43.82165" lon="5.5833">
        <ele>751.978</ele>
        <time>2011-02-06T10:35:52Z</time>
      </trkpt>
      <trkpt lat="43.82177" lon="5.58331">
        <ele>748.958</ele>
        <time>2011-02-06T10:35:56Z</time>
      </trkpt>
      <trkpt lat="43.82187" lon="5.58328">
        <ele>746.611</ele>
        <time>2011-02-06T10:36:00Z</time>
      </trkpt>
      <trkpt lat="43.82198" lon="5.58328">
        <ele>744.539</ele>
        <time>2011-02-06T10:36:04Z</time>
      </trkpt>
      <trkpt lat="43.82209" lon="5.58329">
        <ele>742.436</ele>
        <time>2011-02-06T10:36:09Z</time>
      </trkpt>
      <trkpt lat="43.82219" lon="5.5833">
        <ele>740.181</ele>
        <time>2011-02-06T10:36:13Z</time>
      </trkpt>
      <trkpt lat="43.82229" lon="5.58331">
        <ele>737.869</ele>
        <time>2011-02-06T10:36:17Z</time>
      </trkpt>
      <trkpt lat="43.82238" lon="5.58337">
        <ele>735.546</ele>
        <time>2011-02-06T10:36:22Z</time>
      </trkpt>
      <trkpt lat="43.82249" lon="5.58344">
        <ele>733.222</ele>
        <time>2011-02-06T10:36:26Z</time>
      </trkpt>
      <trkpt lat="43.82257" lon="5.58348">
        <ele>730.993</ele>
        <time>2011-02-06T10:36:29Z</time>
      </trkpt>
      <trkpt lat="43.82267" lon="5.58355">
        <ele>728.881</ele>
        <time>2011-02-06T10:36:33Z</time>
      </trkpt>
      <trkpt lat="43.82273" lon="5.58366">
        <ele>726.833</ele>
        <time>2011-02-06T10:36:36Z</time>
      </trkpt>
      <trkpt lat="43.82283" lon="5.58368">
        <ele>724.962</ele>
        <time>2011-02-06T10:36:40Z</time>
      </trkpt>
      <trkpt lat="43.82289" lon="5.58356">
        <ele>723.344</ele>
        <time>2011-02-06T10:36:45Z</time>
      </trkpt>
      <trkpt lat="43.82292" lon="5.58339">
        <ele>721.885</ele>
        <time>2011-02-06T10:36:49Z</time>
      </trkpt>
      <trkpt lat="43.82294" lon="5.58321">
        <ele>720.479</ele>
        <time>2011-02-06T10:36:52Z</time>
      </trkpt>
      <trkpt lat="43.82296" lon="5.58306">
        <ele>718.968</ele>
        <time>2011-02-06T10:36:55Z</time>
      </trkpt>
      <trkpt lat="43.82296" lon="5.58306">
        <ele>717.48</ele>
        <time>2011-02-06T10:36:58Z</time>
      </trkpt>
      <trkpt lat="43.82309" lon="5.5831">
        <ele>715.778</ele>
        <time>2011-02-06T10:37:04Z</time>
      </trkpt>
      <trkpt lat="43.82319" lon="5.58321">
        <ele>712.687</ele>
        <time>2011-02-06T10:37:07Z</time>
      </trkpt>
      <trkpt lat="43.82328" lon="5.58335">
        <ele>708.38</ele>
        <time>2011-02-06T10:37:10Z</time>
      </trkpt>
      <trkpt lat="43.82333" lon="5.5835">
        <ele>704.63</ele>
        <time>2011-02-06T10:37:12Z</time>
      </trkpt>
      <trkpt lat="43.82337" lon="5.58366">
        <ele>701.804</ele>
        <time>2011-02-06T10:37:14Z</time>
      </trkpt>
      <trkpt lat="43.82344" lon="5.58378">
        <ele>698.972</ele>
        <time>2011-02-06T10:37:17Z</time>
      </trkpt>
      <trkpt lat="43.8235" lon="5.58394">
        <ele>696.08</ele>
        <time>2011-02-06T10:37:20Z</time>
      </trkpt>
      <trkpt lat="43.82355" lon="5.58413">
        <ele>693.764</ele>
        <time>2011-02-06T10:37:23Z</time>
      </trkpt>
      <trkpt lat="43.82358" lon="5.58425">
        <ele>692.372</ele>
        <time>2011-02-06T10:37:25Z</time>
      </trkpt>
      <trkpt lat="43.82359" lon="5.58439">
        <ele>691.675</ele>
        <time>2011-02-06T10:37:27Z</time>
      </trkpt>
      <trkpt lat="43.82362" lon="5.5846">
        <ele>691.13</ele>
        <time>2011-02-06T10:37:30Z</time>
      </trkpt>
      <trkpt lat="43.82364" lon="5.58474">
        <ele>690.462</ele>
        <time>2011-02-06T10:37:32Z</time>
      </trkpt>
      <trkpt lat="43.82366" lon="5.58489">
        <ele>689.83</ele>
        <time>2011-02-06T10:37:34Z</time>
      </trkpt>
      <trkpt lat="43.82369" lon="5.58511">
        <ele>689.291</ele>
        <time>2011-02-06T10:37:37Z</time>
      </trkpt>
      <trkpt lat="43.82372" lon="5.58532">
        <ele>688.69</ele>
        <time>2011-02-06T10:37:40Z</time>
      </trkpt>
      <trkpt lat="43.82373" lon="5.58549">
        <ele>687.907</ele>
        <time>2011-02-06T10:37:43Z</time>
      </trkpt>
      <trkpt lat="43.82373" lon="5.58549">
        <ele>687.071</ele>
        <time>2011-02-06T10:37:45Z</time>
      </trkpt>
      <trkpt lat="43.824" lon="5.58549">
        <ele>686.329</ele>
        <time>2011-02-06T10:38:24Z</time>
      </trkpt>
      <trkpt lat="43.82411" lon="5.58546">
        <ele>685.51</ele>
        <time>2011-02-06T10:38:30Z</time>
      </trkpt>
      <trkpt lat="43.82419" lon="5.58541">
        <ele>684.55</ele>
        <time>2011-02-06T10:38:36Z</time>
      </trkpt>
      <trkpt lat="43.82429" lon="5.58539">
        <ele>682.356</ele>
        <time>2011-02-06T10:38:47Z</time>
      </trkpt>
      <trkpt lat="43.82439" lon="5.58534">
        <ele>677.955</ele>
        <time>2011-02-06T10:38:56Z</time>
      </trkpt>
      <trkpt lat="43.82446" lon="5.58524">
        <ele>672.971</ele>
        <time>2011-02-06T10:39:02Z</time>
      </trkpt>
      <trkpt lat="43.82455" lon="5.58517">
        <ele>669.332</ele>
        <time>2011-02-06T10:39:08Z</time>
      </trkpt>
      <trkpt lat="43.82462" lon="5.58507">
        <ele>666.934</ele>
        <time>2011-02-06T10:39:21Z</time>
      </trkpt>
      <trkpt lat="43.82469" lon="5.58498">
        <ele>665.263</ele>
        <time>2011-02-06T10:39:27Z</time>
      </trkpt>
      <trkpt lat="43.82476" lon="5.5849">
        <ele>663.938</ele>
        <time>2011-02-06T10:39:33Z</time>
      </trkpt>
      <trkpt lat="43.82487" lon="5.58487">
        <ele>662.646</ele>
        <time>2011-02-06T10:39:42Z</time>
      </trkpt>
      <trkpt lat="43.82491" lon="5.58476">
        <ele>661.301</ele>
        <time>2011-02-06T10:39:52Z</time>
      </trkpt>
      <trkpt lat="43.82499" lon="5.58461">
        <ele>660.062</ele>
        <time>2011-02-06T10:40:06Z</time>
      </trkpt>
      <trkpt lat="43.82499" lon="5.58461">
        <ele>659.16</ele>
        <time>2011-02-06T10:40:15Z</time>
      </trkpt>
      <trkpt lat="43.82524" lon="5.58444">
        <ele>658.528</ele>
        <time>2011-02-06T10:40:48Z</time>
      </trkpt>
      <trkpt lat="43.82531" lon="5.58434">
        <ele>657.789</ele>
        <time>2011-02-06T10:40:57Z</time>
      </trkpt>
      <trkpt lat="43.82537" lon="5.58424">
        <ele>656.74</ele>
        <time>2011-02-06T10:41:07Z</time>
      </trkpt>
      <trkpt lat="43.82542" lon="5.58412">
        <ele>655.636</ele>
        <time>2011-02-06T10:41:17Z</time>
      </trkpt>
      <trkpt lat="43.82546" lon="5.58401">
        <ele>654.852</ele>
        <time>2011-02-06T10:41:26Z</time>
      </trkpt>
      <trkpt lat="43.82553" lon="5.58391">
        <ele>654.53</ele>
        <time>2011-02-06T10:41:34Z</time>
      </trkpt>
      <trkpt lat="43.8256" lon="5.58383">
        <ele>654.512</ele>
        <time>2011-02-06T10:41:45Z</time>
      </trkpt>
      <trkpt lat="43.82566" lon="5.58373">
        <ele>654.603</ele>
        <time>2011-02-06T10:41:54Z</time>
      </trkpt>
      <trkpt lat="43.82573" lon="5.58364">
        <ele>654.788</ele>
        <time>2011-02-06T10:42:05Z</time>
      </trkpt>
      <trkpt lat="43.82579" lon="5.58354">
        <ele>655.196</ele>
        <time>2011-02-06T10:42:18Z</time>
      </trkpt>
      <trkpt lat="43.82585" lon="5.58345">
        <ele>655.862</ele>
        <time>2011-02-06T10:42:26Z</time>
      </trkpt>
      <trkpt lat="43.82592" lon="5.58336">
        <ele>656.684</ele>
        <time>2011-02-06T10:42:32Z</time>
      </trkpt>
      <trkpt lat="43.82598" lon="5.58326">
        <ele>657.6</ele>
        <time>2011-02-06T10:42:43Z</time>
      </trkpt>
      <trkpt lat="43.82605" lon="5.58317">
        <ele>658.592</ele>
        <time>2011-02-06T10:42:55Z</time>
      </trkpt>
      <trkpt lat="43.82615" lon="5.58314">
        <ele>659.626</ele>
        <time>2011-02-06T10:43:06Z</time>
      </trkpt>
      <trkpt lat="43.82623" lon="5.58305">
        <ele>660.812</ele>
        <time>2011-02-06T10:43:13Z</time>
      </trkpt>
      <trkpt lat="43.82625" lon="5.58291">
        <ele>662.285</ele>
        <time>2011-02-06T10:43:21Z</time>
      </trkpt>
      <trkpt lat="43.8263" lon="5.58279">
        <ele>663.863</ele>
        <time>2011-02-06T10:43:33Z</time>
      </trkpt>
      <trkpt lat="43.82636" lon="5.5827">
        <ele>665.173</ele>
        <time>2011-02-06T10:43:37Z</time>
      </trkpt>
      <trkpt lat="43.82643" lon="5.58261">
        <ele>666.044</ele>
        <time>2011-02-06T10:43:42Z</time>
      </trkpt>
      <trkpt lat="43.82649" lon="5.58251">
        <ele>666.555</ele>
        <time>2011-02-06T10:43:48Z</time>
      </trkpt>
      <trkpt lat="43.82655" lon="5.5824">
        <ele>666.852</ele>
        <time>2011-02-06T10:43:53Z</time>
      </trkpt>
      <trkpt lat="43.82663" lon="5.58231">
        <ele>667.03</ele>
        <time>2011-02-06T10:43:59Z</time>
      </trkpt>
      <trkpt lat="43.82669" lon="5.58221">
        <ele>667.16</ele>
        <time>2011-02-06T10:44:05Z</time>
      </trkpt>
      <trkpt lat="43.82677" lon="5.58212">
        <ele>667.293</ele>
        <time>2011-02-06T10:44:18Z</time>
      </trkpt>
      <trkpt lat="43.82684" lon="5.58205">
        <ele>667.419</ele>
        <time>2011-02-06T10:44:22Z</time>
      </trkpt>
      <trkpt lat="43.82691" lon="5.58194">
        <ele>667.515</ele>
        <time>2011-02-06T10:44:28Z</time>
      </trkpt>
      <trkpt lat="43.82698" lon="5.58184">
        <ele>667.585</ele>
        <time>2011-02-06T10:44:35Z</time>
      </trkpt>
      <trkpt lat="43.82706" lon="5.58176">
        <ele>667.648</ele>
        <time>2011-02-06T10:44:41Z</time>
      </trkpt>
      <trkpt lat="43.82713" lon="5.58167">
        <ele>667.725</ele>
        <time>2011-02-06T10:44:47Z</time>
      </trkpt>
      <trkpt lat="43.8272" lon="5.58158">
        <ele>667.834</ele>
        <time>2011-02-06T10:44:58Z</time>
      </trkpt>
      <trkpt lat="43.82728" lon="5.58151">
        <ele>667.972</ele>
        <time>2011-02-06T10:45:06Z</time>
      </trkpt>
      <trkpt lat="43.82736" lon="5.58142">
        <ele>668.1</ele>
        <time>2011-02-06T10:45:15Z</time>
      </trkpt>
      <trkpt lat="43.82744" lon="5.58133">
        <ele>668.174</ele>
        <time>2011-02-06T10:45:26Z</time>
      </trkpt>
      <trkpt lat="43.8275" lon="5.58123">
        <ele>668.193</ele>
        <time>2011-02-06T10:45:32Z</time>
      </trkpt>
      <trkpt lat="43.82757" lon="5.58113">
        <ele>668.113</ele>
        <time>2011-02-06T10:45:38Z</time>
      </trkpt>
      <trkpt lat="43.82764" lon="5.58102">
        <ele>667.833</ele>
        <time>2011-02-06T10:45:44Z</time>
      </trkpt>
      <trkpt lat="43.82764" lon="5.58102">
        <ele>667.424</ele>
        <time>2011-02-06T10:46:00Z</time>
      </trkpt>
      <trkpt lat="43.82789" lon="5.58071">
        <ele>667.116</ele>
        <time>2011-02-06T10:46:30Z</time>
      </trkpt>
      <trkpt lat="43.82798" lon="5.58066">
        <ele>667.001</ele>
        <time>2011-02-06T10:46:42Z</time>
      </trkpt>
      <trkpt lat="43.82806" lon="5.58058">
        <ele>667.002</ele>
        <time>2011-02-06T10:46:48Z</time>
      </trkpt>
      <trkpt lat="43.82813" lon="5.58047">
        <ele>667.108</ele>
        <time>2011-02-06T10:46:53Z</time>
      </trkpt>
      <trkpt lat="43.82819" lon="5.58035">
        <ele>667.391</ele>
        <time>2011-02-06T10:46:57Z</time>
      </trkpt>
      <trkpt lat="43.82826" lon="5.58022">
        <ele>667.866</ele>
        <time>2011-02-06T10:47:01Z</time>
      </trkpt>
      <trkpt lat="43.82833" lon="5.58008">
        <ele>668.474</ele>
        <time>2011-02-06T10:47:05Z</time>
      </trkpt>
      <trkpt lat="43.82838" lon="5.57997">
        <ele>669.132</ele>
        <time>2011-02-06T10:47:08Z</time>
      </trkpt>
      <trkpt lat="43.82844" lon="5.57984">
        <ele>669.765</ele>
        <time>2011-02-06T10:47:12Z</time>
      </trkpt>
      <trkpt lat="43.8285" lon="5.57973">
        <ele>670.358</ele>
        <time>2011-02-06T10:47:15Z</time>
      </trkpt>
      <trkpt lat="43.82855" lon="5.57963">
        <ele>670.91</ele>
        <time>2011-02-06T10:47:18Z</time>
      </trkpt>
      <trkpt lat="43.8286" lon="5.57952">
        <ele>671.429</ele>
        <time>2011-02-06T10:47:21Z</time>
      </trkpt>
      <trkpt lat="43.82866" lon="5.57941">
        <ele>671.931</ele>
        <time>2011-02-06T10:47:24Z</time>
      </trkpt>
      <trkpt lat="43.82872" lon="5.5793">
        <ele>672.414</ele>
        <time>2011-02-06T10:47:27Z</time>
      </trkpt>
      <trkpt lat="43.82877" lon="5.57919">
        <ele>672.861</ele>
        <time>2011-02-06T10:47:30Z</time>
      </trkpt>
      <trkpt lat="43.82882" lon="5.5791">
        <ele>673.281</ele>
        <time>2011-02-06T10:47:33Z</time>
      </trkpt>
      <trkpt lat="43.82887" lon="5.57899">
        <ele>673.685</ele>
        <time>2011-02-06T10:47:36Z</time>
      </trkpt>
      <trkpt lat="43.82893" lon="5.57885">
        <ele>674.079</ele>
        <time>2011-02-06T10:47:40Z</time>
      </trkpt>
      <trkpt lat="43.82899" lon="5.57875">
        <ele>674.46</ele>
        <time>2011-02-06T10:47:43Z</time>
      </trkpt>
      <trkpt lat="43.82907" lon="5.57865">
        <ele>674.799</ele>
        <time>2011-02-06T10:47:47Z</time>
      </trkpt>
      <trkpt lat="43.82917" lon="5.57858">
        <ele>675.065</ele>
        <time>2011-02-06T10:47:51Z</time>
      </trkpt>
      <trkpt lat="43.82926" lon="5.57855">
        <ele>675.261</ele>
        <time>2011-02-06T10:47:54Z</time>
      </trkpt>
      <trkpt lat="43.82936" lon="5.57849">
        <ele>675.43</ele>
        <time>2011-02-06T10:47:58Z</time>
      </trkpt>
      <trkpt lat="43.82942" lon="5.57838">
        <ele>675.602</ele>
        <time>2011-02-06T10:48:01Z</time>
      </trkpt>
      <trkpt lat="43.82944" lon="5.57825">
        <ele>675.756</ele>
        <time>2011-02-06T10:48:05Z</time>
      </trkpt>
      <trkpt lat="43.82944" lon="5.57825">
        <ele>675.85</ele>
        <time>2011-02-06T10:48:07Z</time>
      </trkpt>
      <trkpt lat="43.82944" lon="5.57825">
        <ele>675.879</ele>
        <time>2011-02-06T10:48:35Z</time>
      </trkpt>
    </trkseg>
  </trk>
</gpx>